<?xml version="1.0" encoding="UTF-8" standalone="no" ?>
<gpx xmlns="http://www.topografix.com/GPX/1/1" xmlns:xsi="http://www.w3.org/2001/XMLSchema-instance" xsi:schemaLocation="http://www.topografix.com/GPX/1/1 http://www.topografix.com/GPX/1/1/gpx.xsd" version="1.1" creator="VisuGPX - https://www.visugpx.com">
  <metadata>
    <name>La Chapelle-de-Guinchay Cyclisme</name>
    <desc><![CDATA[Montée vers Chénelette au départ de Lamure sur Azergues]]></desc>
  </metadata>
  <trk>
    <name><![CDATA[La Chapelle-de-Guinchay Cyclisme]]></name>
    <trkseg>
      <trkpt lat="46.07441" lon="4.49033">
        <ele>399.79998779297</ele>
        <time>2020-08-06T09:31:04.000Z</time>
      </trkpt>
      <trkpt lat="46.07447" lon="4.49035">
        <ele>399.60000610352</ele>
        <time>2020-08-06T09:31:05.000Z</time>
      </trkpt>
      <trkpt lat="46.07455" lon="4.49046">
        <ele>399</ele>
        <time>2020-08-06T09:31:07.000Z</time>
      </trkpt>
      <trkpt lat="46.07459" lon="4.49069">
        <ele>397.79998779297</ele>
        <time>2020-08-06T09:31:10.000Z</time>
      </trkpt>
      <trkpt lat="46.07463" lon="4.49092">
        <ele>396.39999389648</ele>
        <time>2020-08-06T09:31:13.000Z</time>
      </trkpt>
      <trkpt lat="46.07463" lon="4.49117">
        <ele>394.79998779297</ele>
        <time>2020-08-06T09:31:16.000Z</time>
      </trkpt>
      <trkpt lat="46.07454" lon="4.49134">
        <ele>396.20001220703</ele>
        <time>2020-08-06T09:31:19.000Z</time>
      </trkpt>
      <trkpt lat="46.07437" lon="4.49144">
        <ele>396.79998779297</ele>
        <time>2020-08-06T09:31:22.000Z</time>
      </trkpt>
      <trkpt lat="46.07432" lon="4.49146">
        <ele>397</ele>
        <time>2020-08-06T09:31:23.000Z</time>
      </trkpt>
      <trkpt lat="46.07426" lon="4.49149">
        <ele>397.20001220703</ele>
        <time>2020-08-06T09:31:24.000Z</time>
      </trkpt>
      <trkpt lat="46.074" lon="4.49162">
        <ele>395.20001220703</ele>
        <time>2020-08-06T09:31:29.000Z</time>
      </trkpt>
      <trkpt lat="46.07359" lon="4.49192">
        <ele>394</ele>
        <time>2020-08-06T09:31:37.000Z</time>
      </trkpt>
      <trkpt lat="46.0733" lon="4.49228">
        <ele>395.79998779297</ele>
        <time>2020-08-06T09:31:44.000Z</time>
      </trkpt>
      <trkpt lat="46.07327" lon="4.49235">
        <ele>396</ele>
        <time>2020-08-06T09:31:45.000Z</time>
      </trkpt>
      <trkpt lat="46.07321" lon="4.49257">
        <ele>396.60000610352</ele>
        <time>2020-08-06T09:31:48.000Z</time>
      </trkpt>
      <trkpt lat="46.07324" lon="4.49283">
        <ele>398</ele>
        <time>2020-08-06T09:31:52.000Z</time>
      </trkpt>
      <trkpt lat="46.07333" lon="4.49301">
        <ele>399.39999389648</ele>
        <time>2020-08-06T09:31:55.000Z</time>
      </trkpt>
      <trkpt lat="46.07337" lon="4.49307">
        <ele>399.79998779297</ele>
        <time>2020-08-06T09:31:56.000Z</time>
      </trkpt>
      <trkpt lat="46.07351" lon="4.49329">
        <ele>401.39999389648</ele>
        <time>2020-08-06T09:32:01.000Z</time>
      </trkpt>
      <trkpt lat="46.07359" lon="4.49341">
        <ele>402.20001220703</ele>
        <time>2020-08-06T09:32:04.000Z</time>
      </trkpt>
      <trkpt lat="46.07362" lon="4.49346">
        <ele>402.39999389648</ele>
        <time>2020-08-06T09:32:05.000Z</time>
      </trkpt>
      <trkpt lat="46.07365" lon="4.49351">
        <ele>402.79998779297</ele>
        <time>2020-08-06T09:32:06.000Z</time>
      </trkpt>
      <trkpt lat="46.0738" lon="4.49377">
        <ele>404</ele>
        <time>2020-08-06T09:32:11.000Z</time>
      </trkpt>
      <trkpt lat="46.07384" lon="4.49382">
        <ele>404.20001220703</ele>
        <time>2020-08-06T09:32:12.000Z</time>
      </trkpt>
      <trkpt lat="46.07407" lon="4.49419">
        <ele>405.60000610352</ele>
        <time>2020-08-06T09:32:19.000Z</time>
      </trkpt>
      <trkpt lat="46.07414" lon="4.49429">
        <ele>406.20001220703</ele>
        <time>2020-08-06T09:32:21.000Z</time>
      </trkpt>
      <trkpt lat="46.07443" lon="4.49473">
        <ele>407</ele>
        <time>2020-08-06T09:32:29.000Z</time>
      </trkpt>
      <trkpt lat="46.07469" lon="4.49502">
        <ele>407.60000610352</ele>
        <time>2020-08-06T09:32:35.000Z</time>
      </trkpt>
      <trkpt lat="46.07479" lon="4.49511">
        <ele>408</ele>
        <time>2020-08-06T09:32:37.000Z</time>
      </trkpt>
      <trkpt lat="46.075" lon="4.49528">
        <ele>408.39999389648</ele>
        <time>2020-08-06T09:32:41.000Z</time>
      </trkpt>
      <trkpt lat="46.07509" lon="4.49536">
        <ele>408.60000610352</ele>
        <time>2020-08-06T09:32:43.000Z</time>
      </trkpt>
      <trkpt lat="46.07544" lon="4.49564">
        <ele>407.79998779297</ele>
        <time>2020-08-06T09:32:50.000Z</time>
      </trkpt>
      <trkpt lat="46.07553" lon="4.49572">
        <ele>407.79998779297</ele>
        <time>2020-08-06T09:32:52.000Z</time>
      </trkpt>
      <trkpt lat="46.07578" lon="4.49593">
        <ele>406.60000610352</ele>
        <time>2020-08-06T09:32:57.000Z</time>
      </trkpt>
      <trkpt lat="46.07588" lon="4.49601">
        <ele>406</ele>
        <time>2020-08-06T09:32:59.000Z</time>
      </trkpt>
      <trkpt lat="46.07629" lon="4.49631">
        <ele>405.60000610352</ele>
        <time>2020-08-06T09:33:07.000Z</time>
      </trkpt>
      <trkpt lat="46.07634" lon="4.49634">
        <ele>405.79998779297</ele>
        <time>2020-08-06T09:33:08.000Z</time>
      </trkpt>
      <trkpt lat="46.07639" lon="4.49637">
        <ele>406</ele>
        <time>2020-08-06T09:33:09.000Z</time>
      </trkpt>
      <trkpt lat="46.0766" lon="4.49647">
        <ele>406.60000610352</ele>
        <time>2020-08-06T09:33:13.000Z</time>
      </trkpt>
      <trkpt lat="46.07694" lon="4.49662">
        <ele>408.20001220703</ele>
        <time>2020-08-06T09:33:20.000Z</time>
      </trkpt>
      <trkpt lat="46.07699" lon="4.49663">
        <ele>408.39999389648</ele>
        <time>2020-08-06T09:33:21.000Z</time>
      </trkpt>
      <trkpt lat="46.07726" lon="4.49674">
        <ele>410.20001220703</ele>
        <time>2020-08-06T09:33:27.000Z</time>
      </trkpt>
      <trkpt lat="46.07739" lon="4.49679">
        <ele>410.79998779297</ele>
        <time>2020-08-06T09:33:30.000Z</time>
      </trkpt>
      <trkpt lat="46.07743" lon="4.4968">
        <ele>411</ele>
        <time>2020-08-06T09:33:31.000Z</time>
      </trkpt>
      <trkpt lat="46.07764" lon="4.49689">
        <ele>411.79998779297</ele>
        <time>2020-08-06T09:33:36.000Z</time>
      </trkpt>
      <trkpt lat="46.07771" lon="4.49693">
        <ele>412.20001220703</ele>
        <time>2020-08-06T09:33:38.000Z</time>
      </trkpt>
      <trkpt lat="46.07779" lon="4.49696">
        <ele>412.60000610352</ele>
        <time>2020-08-06T09:33:40.000Z</time>
      </trkpt>
      <trkpt lat="46.07787" lon="4.497">
        <ele>412.79998779297</ele>
        <time>2020-08-06T09:33:42.000Z</time>
      </trkpt>
      <trkpt lat="46.07798" lon="4.49705">
        <ele>413.39999389648</ele>
        <time>2020-08-06T09:33:45.000Z</time>
      </trkpt>
      <trkpt lat="46.07802" lon="4.49707">
        <ele>413.60000610352</ele>
        <time>2020-08-06T09:33:46.000Z</time>
      </trkpt>
      <trkpt lat="46.07821" lon="4.49716">
        <ele>414.79998779297</ele>
        <time>2020-08-06T09:33:51.000Z</time>
      </trkpt>
      <trkpt lat="46.07828" lon="4.4972">
        <ele>415.20001220703</ele>
        <time>2020-08-06T09:33:53.000Z</time>
      </trkpt>
      <trkpt lat="46.07835" lon="4.49723">
        <ele>415.79998779297</ele>
        <time>2020-08-06T09:33:55.000Z</time>
      </trkpt>
      <trkpt lat="46.0786" lon="4.49734">
        <ele>417.79998779297</ele>
        <time>2020-08-06T09:34:02.000Z</time>
      </trkpt>
      <trkpt lat="46.07867" lon="4.49737">
        <ele>418.39999389648</ele>
        <time>2020-08-06T09:34:04.000Z</time>
      </trkpt>
      <trkpt lat="46.07878" lon="4.49743">
        <ele>419</ele>
        <time>2020-08-06T09:34:07.000Z</time>
      </trkpt>
      <trkpt lat="46.07891" lon="4.4975">
        <ele>420</ele>
        <time>2020-08-06T09:34:11.000Z</time>
      </trkpt>
      <trkpt lat="46.07902" lon="4.49756">
        <ele>420.79998779297</ele>
        <time>2020-08-06T09:34:14.000Z</time>
      </trkpt>
      <trkpt lat="46.07916" lon="4.49765">
        <ele>422</ele>
        <time>2020-08-06T09:34:18.000Z</time>
      </trkpt>
      <trkpt lat="46.07937" lon="4.49778">
        <ele>423.79998779297</ele>
        <time>2020-08-06T09:34:24.000Z</time>
      </trkpt>
      <trkpt lat="46.07952" lon="4.49786">
        <ele>424.79998779297</ele>
        <time>2020-08-06T09:34:28.000Z</time>
      </trkpt>
      <trkpt lat="46.07977" lon="4.49795">
        <ele>427</ele>
        <time>2020-08-06T09:34:35.000Z</time>
      </trkpt>
      <trkpt lat="46.0799" lon="4.49797">
        <ele>427.20001220703</ele>
        <time>2020-08-06T09:34:38.000Z</time>
      </trkpt>
      <trkpt lat="46.08006" lon="4.49798">
        <ele>427.60000610352</ele>
        <time>2020-08-06T09:34:42.000Z</time>
      </trkpt>
      <trkpt lat="46.0803" lon="4.498">
        <ele>427.60000610352</ele>
        <time>2020-08-06T09:34:48.000Z</time>
      </trkpt>
      <trkpt lat="46.08051" lon="4.49803">
        <ele>427.60000610352</ele>
        <time>2020-08-06T09:34:53.000Z</time>
      </trkpt>
      <trkpt lat="46.08055" lon="4.49804">
        <ele>427.79998779297</ele>
        <time>2020-08-06T09:34:54.000Z</time>
      </trkpt>
      <trkpt lat="46.08075" lon="4.49807">
        <ele>426.79998779297</ele>
        <time>2020-08-06T09:34:59.000Z</time>
      </trkpt>
      <trkpt lat="46.08083" lon="4.49809">
        <ele>426.20001220703</ele>
        <time>2020-08-06T09:35:01.000Z</time>
      </trkpt>
      <trkpt lat="46.08092" lon="4.49809">
        <ele>425.79998779297</ele>
        <time>2020-08-06T09:35:03.000Z</time>
      </trkpt>
      <trkpt lat="46.08113" lon="4.49808">
        <ele>425.20001220703</ele>
        <time>2020-08-06T09:35:08.000Z</time>
      </trkpt>
      <trkpt lat="46.08122" lon="4.49806">
        <ele>425.20001220703</ele>
        <time>2020-08-06T09:35:10.000Z</time>
      </trkpt>
      <trkpt lat="46.0813" lon="4.49801">
        <ele>425.60000610352</ele>
        <time>2020-08-06T09:35:12.000Z</time>
      </trkpt>
      <trkpt lat="46.08138" lon="4.49795">
        <ele>426.39999389648</ele>
        <time>2020-08-06T09:35:14.000Z</time>
      </trkpt>
      <trkpt lat="46.08142" lon="4.49793">
        <ele>426.60000610352</ele>
        <time>2020-08-06T09:35:15.000Z</time>
      </trkpt>
      <trkpt lat="46.08146" lon="4.49789">
        <ele>427.20001220703</ele>
        <time>2020-08-06T09:35:16.000Z</time>
      </trkpt>
      <trkpt lat="46.08161" lon="4.49778">
        <ele>429</ele>
        <time>2020-08-06T09:35:20.000Z</time>
      </trkpt>
      <trkpt lat="46.08177" lon="4.49765">
        <ele>431.20001220703</ele>
        <time>2020-08-06T09:35:24.000Z</time>
      </trkpt>
      <trkpt lat="46.08185" lon="4.4976">
        <ele>432</ele>
        <time>2020-08-06T09:35:26.000Z</time>
      </trkpt>
      <trkpt lat="46.08215" lon="4.4975">
        <ele>432.79998779297</ele>
        <time>2020-08-06T09:35:33.000Z</time>
      </trkpt>
      <trkpt lat="46.08241" lon="4.49753">
        <ele>433.39999389648</ele>
        <time>2020-08-06T09:35:39.000Z</time>
      </trkpt>
      <trkpt lat="46.08257" lon="4.49763">
        <ele>433.60000610352</ele>
        <time>2020-08-06T09:35:43.000Z</time>
      </trkpt>
      <trkpt lat="46.08261" lon="4.49765">
        <ele>433.79998779297</ele>
        <time>2020-08-06T09:35:44.000Z</time>
      </trkpt>
      <trkpt lat="46.08269" lon="4.4977">
        <ele>434</ele>
        <time>2020-08-06T09:35:46.000Z</time>
      </trkpt>
      <trkpt lat="46.08293" lon="4.49783">
        <ele>434.39999389648</ele>
        <time>2020-08-06T09:35:52.000Z</time>
      </trkpt>
      <trkpt lat="46.08323" lon="4.49803">
        <ele>435.39999389648</ele>
        <time>2020-08-06T09:36:00.000Z</time>
      </trkpt>
      <trkpt lat="46.08343" lon="4.49824">
        <ele>435.39999389648</ele>
        <time>2020-08-06T09:36:06.000Z</time>
      </trkpt>
      <trkpt lat="46.08362" lon="4.49854">
        <ele>434.39999389648</ele>
        <time>2020-08-06T09:36:13.000Z</time>
      </trkpt>
      <trkpt lat="46.08368" lon="4.49862">
        <ele>434.20001220703</ele>
        <time>2020-08-06T09:36:15.000Z</time>
      </trkpt>
      <trkpt lat="46.08384" lon="4.4988">
        <ele>434</ele>
        <time>2020-08-06T09:36:20.000Z</time>
      </trkpt>
      <trkpt lat="46.08391" lon="4.49887">
        <ele>434</ele>
        <time>2020-08-06T09:36:22.000Z</time>
      </trkpt>
      <trkpt lat="46.08398" lon="4.49894">
        <ele>434</ele>
        <time>2020-08-06T09:36:24.000Z</time>
      </trkpt>
      <trkpt lat="46.0841" lon="4.499">
        <ele>434.39999389648</ele>
        <time>2020-08-06T09:36:27.000Z</time>
      </trkpt>
      <trkpt lat="46.08426" lon="4.49908">
        <ele>435</ele>
        <time>2020-08-06T09:36:31.000Z</time>
      </trkpt>
      <trkpt lat="46.08438" lon="4.49913">
        <ele>435.79998779297</ele>
        <time>2020-08-06T09:36:34.000Z</time>
      </trkpt>
      <trkpt lat="46.08442" lon="4.49915">
        <ele>436</ele>
        <time>2020-08-06T09:36:35.000Z</time>
      </trkpt>
      <trkpt lat="46.08469" lon="4.49926">
        <ele>437.20001220703</ele>
        <time>2020-08-06T09:36:41.000Z</time>
      </trkpt>
      <trkpt lat="46.08473" lon="4.49929">
        <ele>437.20001220703</ele>
        <time>2020-08-06T09:36:42.000Z</time>
      </trkpt>
      <trkpt lat="46.08496" lon="4.49944">
        <ele>437.20001220703</ele>
        <time>2020-08-06T09:36:47.000Z</time>
      </trkpt>
      <trkpt lat="46.08537" lon="4.49975">
        <ele>436</ele>
        <time>2020-08-06T09:36:56.000Z</time>
      </trkpt>
      <trkpt lat="46.08541" lon="4.4998">
        <ele>435.79998779297</ele>
        <time>2020-08-06T09:36:57.000Z</time>
      </trkpt>
      <trkpt lat="46.08555" lon="4.49999">
        <ele>434.20001220703</ele>
        <time>2020-08-06T09:37:01.000Z</time>
      </trkpt>
      <trkpt lat="46.0858" lon="4.50047">
        <ele>429.79998779297</ele>
        <time>2020-08-06T09:37:09.000Z</time>
      </trkpt>
      <trkpt lat="46.086" lon="4.50077">
        <ele>428.79998779297</ele>
        <time>2020-08-06T09:37:14.000Z</time>
      </trkpt>
      <trkpt lat="46.08605" lon="4.50081">
        <ele>428.60000610352</ele>
        <time>2020-08-06T09:37:15.000Z</time>
      </trkpt>
      <trkpt lat="46.0861" lon="4.50084">
        <ele>428.79998779297</ele>
        <time>2020-08-06T09:37:16.000Z</time>
      </trkpt>
      <trkpt lat="46.0862" lon="4.50086">
        <ele>429</ele>
        <time>2020-08-06T09:37:18.000Z</time>
      </trkpt>
      <trkpt lat="46.08631" lon="4.50086">
        <ele>429.39999389648</ele>
        <time>2020-08-06T09:37:20.000Z</time>
      </trkpt>
      <trkpt lat="46.08647" lon="4.5008">
        <ele>430.20001220703</ele>
        <time>2020-08-06T09:37:23.000Z</time>
      </trkpt>
      <trkpt lat="46.08659" lon="4.50074">
        <ele>430.39999389648</ele>
        <time>2020-08-06T09:37:25.000Z</time>
      </trkpt>
      <trkpt lat="46.08682" lon="4.5006">
        <ele>430.60000610352</ele>
        <time>2020-08-06T09:37:29.000Z</time>
      </trkpt>
      <trkpt lat="46.08694" lon="4.50054">
        <ele>430.39999389648</ele>
        <time>2020-08-06T09:37:31.000Z</time>
      </trkpt>
      <trkpt lat="46.08714" lon="4.50057">
        <ele>429.60000610352</ele>
        <time>2020-08-06T09:37:34.000Z</time>
      </trkpt>
      <trkpt lat="46.08723" lon="4.50071">
        <ele>428.79998779297</ele>
        <time>2020-08-06T09:37:36.000Z</time>
      </trkpt>
      <trkpt lat="46.08726" lon="4.50078">
        <ele>428.39999389648</ele>
        <time>2020-08-06T09:37:37.000Z</time>
      </trkpt>
      <trkpt lat="46.08728" lon="4.50084">
        <ele>428.20001220703</ele>
        <time>2020-08-06T09:37:38.000Z</time>
      </trkpt>
      <trkpt lat="46.08731" lon="4.50094">
        <ele>428</ele>
        <time>2020-08-06T09:37:40.000Z</time>
      </trkpt>
      <trkpt lat="46.08733" lon="4.50097">
        <ele>428</ele>
        <time>2020-08-06T09:37:41.000Z</time>
      </trkpt>
      <trkpt lat="46.08737" lon="4.50101">
        <ele>428.20001220703</ele>
        <time>2020-08-06T09:37:43.000Z</time>
      </trkpt>
      <trkpt lat="46.08741" lon="4.50099">
        <ele>428.60000610352</ele>
        <time>2020-08-06T09:37:45.000Z</time>
      </trkpt>
      <trkpt lat="46.08744" lon="4.50098">
        <ele>428.79998779297</ele>
        <time>2020-08-06T09:37:46.000Z</time>
      </trkpt>
      <trkpt lat="46.08748" lon="4.50095">
        <ele>429</ele>
        <time>2020-08-06T09:37:48.000Z</time>
      </trkpt>
      <trkpt lat="46.08764" lon="4.50092">
        <ele>430.20001220703</ele>
        <time>2020-08-06T09:37:52.000Z</time>
      </trkpt>
      <trkpt lat="46.08778" lon="4.50091">
        <ele>431</ele>
        <time>2020-08-06T09:37:55.000Z</time>
      </trkpt>
      <trkpt lat="46.08797" lon="4.5009">
        <ele>430.79998779297</ele>
        <time>2020-08-06T09:37:59.000Z</time>
      </trkpt>
      <trkpt lat="46.0883" lon="4.50093">
        <ele>431.79998779297</ele>
        <time>2020-08-06T09:38:06.000Z</time>
      </trkpt>
      <trkpt lat="46.08848" lon="4.50094">
        <ele>433.20001220703</ele>
        <time>2020-08-06T09:38:10.000Z</time>
      </trkpt>
      <trkpt lat="46.08853" lon="4.50095">
        <ele>433.39999389648</ele>
        <time>2020-08-06T09:38:11.000Z</time>
      </trkpt>
      <trkpt lat="46.08871" lon="4.50095">
        <ele>434.79998779297</ele>
        <time>2020-08-06T09:38:15.000Z</time>
      </trkpt>
      <trkpt lat="46.08876" lon="4.50094">
        <ele>434.60000610352</ele>
        <time>2020-08-06T09:38:16.000Z</time>
      </trkpt>
      <trkpt lat="46.08885" lon="4.50094">
        <ele>434.39999389648</ele>
        <time>2020-08-06T09:38:18.000Z</time>
      </trkpt>
      <trkpt lat="46.08889" lon="4.50093">
        <ele>434.39999389648</ele>
        <time>2020-08-06T09:38:19.000Z</time>
      </trkpt>
      <trkpt lat="46.08902" lon="4.50092">
        <ele>434.79998779297</ele>
        <time>2020-08-06T09:38:22.000Z</time>
      </trkpt>
      <trkpt lat="46.08915" lon="4.5009">
        <ele>435.60000610352</ele>
        <time>2020-08-06T09:38:25.000Z</time>
      </trkpt>
      <trkpt lat="46.08919" lon="4.50089">
        <ele>435.79998779297</ele>
        <time>2020-08-06T09:38:26.000Z</time>
      </trkpt>
      <trkpt lat="46.08932" lon="4.50086">
        <ele>436.39999389648</ele>
        <time>2020-08-06T09:38:29.000Z</time>
      </trkpt>
      <trkpt lat="46.08949" lon="4.5008">
        <ele>436.79998779297</ele>
        <time>2020-08-06T09:38:33.000Z</time>
      </trkpt>
      <trkpt lat="46.08958" lon="4.50076">
        <ele>436.79998779297</ele>
        <time>2020-08-06T09:38:35.000Z</time>
      </trkpt>
      <trkpt lat="46.08963" lon="4.50073">
        <ele>436.60000610352</ele>
        <time>2020-08-06T09:38:36.000Z</time>
      </trkpt>
      <trkpt lat="46.08984" lon="4.50056">
        <ele>436</ele>
        <time>2020-08-06T09:38:41.000Z</time>
      </trkpt>
      <trkpt lat="46.08989" lon="4.50052">
        <ele>436</ele>
        <time>2020-08-06T09:38:42.000Z</time>
      </trkpt>
      <trkpt lat="46.09002" lon="4.50041">
        <ele>435.79998779297</ele>
        <time>2020-08-06T09:38:45.000Z</time>
      </trkpt>
      <trkpt lat="46.09034" lon="4.50014">
        <ele>437.79998779297</ele>
        <time>2020-08-06T09:38:52.000Z</time>
      </trkpt>
      <trkpt lat="46.09038" lon="4.5001">
        <ele>438.20001220703</ele>
        <time>2020-08-06T09:38:53.000Z</time>
      </trkpt>
      <trkpt lat="46.09066" lon="4.49984">
        <ele>439.20001220703</ele>
        <time>2020-08-06T09:38:59.000Z</time>
      </trkpt>
      <trkpt lat="46.09075" lon="4.49975">
        <ele>441.20001220703</ele>
        <time>2020-08-06T09:39:01.000Z</time>
      </trkpt>
      <trkpt lat="46.09096" lon="4.49951">
        <ele>442.39999389648</ele>
        <time>2020-08-06T09:39:06.000Z</time>
      </trkpt>
      <trkpt lat="46.09109" lon="4.49937">
        <ele>445</ele>
        <time>2020-08-06T09:39:09.000Z</time>
      </trkpt>
      <trkpt lat="46.09137" lon="4.49905">
        <ele>445</ele>
        <time>2020-08-06T09:39:16.000Z</time>
      </trkpt>
      <trkpt lat="46.09173" lon="4.49866">
        <ele>443.60000610352</ele>
        <time>2020-08-06T09:39:25.000Z</time>
      </trkpt>
      <trkpt lat="46.09176" lon="4.49862">
        <ele>443.79998779297</ele>
        <time>2020-08-06T09:39:26.000Z</time>
      </trkpt>
      <trkpt lat="46.092" lon="4.49836">
        <ele>445.39999389648</ele>
        <time>2020-08-06T09:39:32.000Z</time>
      </trkpt>
      <trkpt lat="46.09211" lon="4.49823">
        <ele>443.79998779297</ele>
        <time>2020-08-06T09:39:35.000Z</time>
      </trkpt>
      <trkpt lat="46.09227" lon="4.49806">
        <ele>441.79998779297</ele>
        <time>2020-08-06T09:39:39.000Z</time>
      </trkpt>
      <trkpt lat="46.09236" lon="4.49798">
        <ele>440.79998779297</ele>
        <time>2020-08-06T09:39:41.000Z</time>
      </trkpt>
      <trkpt lat="46.09258" lon="4.49781">
        <ele>438.60000610352</ele>
        <time>2020-08-06T09:39:46.000Z</time>
      </trkpt>
      <trkpt lat="46.09273" lon="4.49776">
        <ele>438.60000610352</ele>
        <time>2020-08-06T09:39:49.000Z</time>
      </trkpt>
      <trkpt lat="46.09288" lon="4.49776">
        <ele>439</ele>
        <time>2020-08-06T09:39:52.000Z</time>
      </trkpt>
      <trkpt lat="46.09318" lon="4.49789">
        <ele>440.20001220703</ele>
        <time>2020-08-06T09:39:58.000Z</time>
      </trkpt>
      <trkpt lat="46.09341" lon="4.49806">
        <ele>440.79998779297</ele>
        <time>2020-08-06T09:40:03.000Z</time>
      </trkpt>
      <trkpt lat="46.0935" lon="4.49815">
        <ele>441</ele>
        <time>2020-08-06T09:40:05.000Z</time>
      </trkpt>
      <trkpt lat="46.09384" lon="4.49854">
        <ele>441.79998779297</ele>
        <time>2020-08-06T09:40:13.000Z</time>
      </trkpt>
      <trkpt lat="46.09409" lon="4.49871">
        <ele>442.39999389648</ele>
        <time>2020-08-06T09:40:18.000Z</time>
      </trkpt>
      <trkpt lat="46.09431" lon="4.49877">
        <ele>443.20001220703</ele>
        <time>2020-08-06T09:40:22.000Z</time>
      </trkpt>
      <trkpt lat="46.09437" lon="4.49878">
        <ele>443.39999389648</ele>
        <time>2020-08-06T09:40:23.000Z</time>
      </trkpt>
      <trkpt lat="46.09443" lon="4.49878">
        <ele>443.39999389648</ele>
        <time>2020-08-06T09:40:24.000Z</time>
      </trkpt>
      <trkpt lat="46.09494" lon="4.49879">
        <ele>446.20001220703</ele>
        <time>2020-08-06T09:40:33.000Z</time>
      </trkpt>
      <trkpt lat="46.09499" lon="4.49879">
        <ele>446.79998779297</ele>
        <time>2020-08-06T09:40:34.000Z</time>
      </trkpt>
      <trkpt lat="46.09516" lon="4.49873">
        <ele>448</ele>
        <time>2020-08-06T09:40:37.000Z</time>
      </trkpt>
      <trkpt lat="46.09521" lon="4.4987">
        <ele>448.20001220703</ele>
        <time>2020-08-06T09:40:38.000Z</time>
      </trkpt>
      <trkpt lat="46.09558" lon="4.49838">
        <ele>448.20001220703</ele>
        <time>2020-08-06T09:40:46.000Z</time>
      </trkpt>
      <trkpt lat="46.0959" lon="4.49812">
        <ele>448</ele>
        <time>2020-08-06T09:40:53.000Z</time>
      </trkpt>
      <trkpt lat="46.09629" lon="4.49791">
        <ele>446.60000610352</ele>
        <time>2020-08-06T09:41:01.000Z</time>
      </trkpt>
      <trkpt lat="46.09645" lon="4.49784">
        <ele>446.39999389648</ele>
        <time>2020-08-06T09:41:04.000Z</time>
      </trkpt>
      <trkpt lat="46.09665" lon="4.49779">
        <ele>447.39999389648</ele>
        <time>2020-08-06T09:41:08.000Z</time>
      </trkpt>
      <trkpt lat="46.0967" lon="4.49778">
        <ele>447.60000610352</ele>
        <time>2020-08-06T09:41:09.000Z</time>
      </trkpt>
      <trkpt lat="46.0969" lon="4.49772">
        <ele>448.79998779297</ele>
        <time>2020-08-06T09:41:13.000Z</time>
      </trkpt>
      <trkpt lat="46.09723" lon="4.49764">
        <ele>450.39999389648</ele>
        <time>2020-08-06T09:41:20.000Z</time>
      </trkpt>
      <trkpt lat="46.09758" lon="4.49755">
        <ele>452.60000610352</ele>
        <time>2020-08-06T09:41:27.000Z</time>
      </trkpt>
      <trkpt lat="46.09788" lon="4.49744">
        <ele>452.79998779297</ele>
        <time>2020-08-06T09:41:33.000Z</time>
      </trkpt>
      <trkpt lat="46.09793" lon="4.49742">
        <ele>452.39999389648</ele>
        <time>2020-08-06T09:41:34.000Z</time>
      </trkpt>
      <trkpt lat="46.09799" lon="4.49739">
        <ele>452</ele>
        <time>2020-08-06T09:41:35.000Z</time>
      </trkpt>
      <trkpt lat="46.09804" lon="4.49736">
        <ele>451.60000610352</ele>
        <time>2020-08-06T09:41:36.000Z</time>
      </trkpt>
      <trkpt lat="46.09836" lon="4.49717">
        <ele>450</ele>
        <time>2020-08-06T09:41:42.000Z</time>
      </trkpt>
      <trkpt lat="46.09857" lon="4.49705">
        <ele>448</ele>
        <time>2020-08-06T09:41:46.000Z</time>
      </trkpt>
      <trkpt lat="46.09867" lon="4.49699">
        <ele>447.39999389648</ele>
        <time>2020-08-06T09:41:48.000Z</time>
      </trkpt>
      <trkpt lat="46.09872" lon="4.49696">
        <ele>447.39999389648</ele>
        <time>2020-08-06T09:41:49.000Z</time>
      </trkpt>
      <trkpt lat="46.09898" lon="4.49683">
        <ele>448</ele>
        <time>2020-08-06T09:41:54.000Z</time>
      </trkpt>
      <trkpt lat="46.09909" lon="4.49677">
        <ele>448.20001220703</ele>
        <time>2020-08-06T09:41:56.000Z</time>
      </trkpt>
      <trkpt lat="46.0993" lon="4.49664">
        <ele>448.79998779297</ele>
        <time>2020-08-06T09:42:00.000Z</time>
      </trkpt>
      <trkpt lat="46.09945" lon="4.49657">
        <ele>449</ele>
        <time>2020-08-06T09:42:03.000Z</time>
      </trkpt>
      <trkpt lat="46.09976" lon="4.49647">
        <ele>448.39999389648</ele>
        <time>2020-08-06T09:42:09.000Z</time>
      </trkpt>
      <trkpt lat="46.10011" lon="4.4964">
        <ele>450</ele>
        <time>2020-08-06T09:42:16.000Z</time>
      </trkpt>
      <trkpt lat="46.10016" lon="4.49639">
        <ele>450.20001220703</ele>
        <time>2020-08-06T09:42:17.000Z</time>
      </trkpt>
      <trkpt lat="46.10041" lon="4.49637">
        <ele>451.60000610352</ele>
        <time>2020-08-06T09:42:22.000Z</time>
      </trkpt>
      <trkpt lat="46.10055" lon="4.49635">
        <ele>452.39999389648</ele>
        <time>2020-08-06T09:42:25.000Z</time>
      </trkpt>
      <trkpt lat="46.10069" lon="4.49634">
        <ele>454.39999389648</ele>
        <time>2020-08-06T09:42:28.000Z</time>
      </trkpt>
      <trkpt lat="46.10087" lon="4.49632">
        <ele>456.79998779297</ele>
        <time>2020-08-06T09:42:32.000Z</time>
      </trkpt>
      <trkpt lat="46.10091" lon="4.49631">
        <ele>457</ele>
        <time>2020-08-06T09:42:33.000Z</time>
      </trkpt>
      <trkpt lat="46.10113" lon="4.49625">
        <ele>458.60000610352</ele>
        <time>2020-08-06T09:42:38.000Z</time>
      </trkpt>
      <trkpt lat="46.1012" lon="4.49622">
        <ele>459.20001220703</ele>
        <time>2020-08-06T09:42:40.000Z</time>
      </trkpt>
      <trkpt lat="46.10124" lon="4.4962">
        <ele>459.39999389648</ele>
        <time>2020-08-06T09:42:41.000Z</time>
      </trkpt>
      <trkpt lat="46.10128" lon="4.49618">
        <ele>459.39999389648</ele>
        <time>2020-08-06T09:42:42.000Z</time>
      </trkpt>
      <trkpt lat="46.10144" lon="4.4961">
        <ele>460.79998779297</ele>
        <time>2020-08-06T09:42:46.000Z</time>
      </trkpt>
      <trkpt lat="46.10151" lon="4.49606">
        <ele>461.39999389648</ele>
        <time>2020-08-06T09:42:48.000Z</time>
      </trkpt>
      <trkpt lat="46.10169" lon="4.496">
        <ele>463.20001220703</ele>
        <time>2020-08-06T09:42:53.000Z</time>
      </trkpt>
      <trkpt lat="46.10173" lon="4.49598">
        <ele>463.60000610352</ele>
        <time>2020-08-06T09:42:54.000Z</time>
      </trkpt>
      <trkpt lat="46.10195" lon="4.49592">
        <ele>466</ele>
        <time>2020-08-06T09:43:00.000Z</time>
      </trkpt>
      <trkpt lat="46.10202" lon="4.4959">
        <ele>466.60000610352</ele>
        <time>2020-08-06T09:43:02.000Z</time>
      </trkpt>
      <trkpt lat="46.10212" lon="4.49586">
        <ele>466</ele>
        <time>2020-08-06T09:43:05.000Z</time>
      </trkpt>
      <trkpt lat="46.10227" lon="4.49581">
        <ele>465.60000610352</ele>
        <time>2020-08-06T09:43:09.000Z</time>
      </trkpt>
      <trkpt lat="46.10231" lon="4.4958">
        <ele>466</ele>
        <time>2020-08-06T09:43:10.000Z</time>
      </trkpt>
      <trkpt lat="46.10246" lon="4.49576">
        <ele>467.60000610352</ele>
        <time>2020-08-06T09:43:14.000Z</time>
      </trkpt>
      <trkpt lat="46.10257" lon="4.49572">
        <ele>468.79998779297</ele>
        <time>2020-08-06T09:43:17.000Z</time>
      </trkpt>
      <trkpt lat="46.10261" lon="4.49571">
        <ele>469.20001220703</ele>
        <time>2020-08-06T09:43:18.000Z</time>
      </trkpt>
      <trkpt lat="46.10268" lon="4.49568">
        <ele>469</ele>
        <time>2020-08-06T09:43:20.000Z</time>
      </trkpt>
      <trkpt lat="46.10286" lon="4.4956">
        <ele>467.79998779297</ele>
        <time>2020-08-06T09:43:25.000Z</time>
      </trkpt>
      <trkpt lat="46.1029" lon="4.49558">
        <ele>467.60000610352</ele>
        <time>2020-08-06T09:43:26.000Z</time>
      </trkpt>
      <trkpt lat="46.10297" lon="4.49554">
        <ele>467</ele>
        <time>2020-08-06T09:43:28.000Z</time>
      </trkpt>
      <trkpt lat="46.10311" lon="4.49548">
        <ele>465.79998779297</ele>
        <time>2020-08-06T09:43:32.000Z</time>
      </trkpt>
      <trkpt lat="46.10325" lon="4.49541">
        <ele>465.39999389648</ele>
        <time>2020-08-06T09:43:36.000Z</time>
      </trkpt>
      <trkpt lat="46.10329" lon="4.49539">
        <ele>465</ele>
        <time>2020-08-06T09:43:37.000Z</time>
      </trkpt>
      <trkpt lat="46.10344" lon="4.49534">
        <ele>464</ele>
        <time>2020-08-06T09:43:41.000Z</time>
      </trkpt>
      <trkpt lat="46.10352" lon="4.49531">
        <ele>464.39999389648</ele>
        <time>2020-08-06T09:43:43.000Z</time>
      </trkpt>
      <trkpt lat="46.1036" lon="4.49529">
        <ele>464.79998779297</ele>
        <time>2020-08-06T09:43:45.000Z</time>
      </trkpt>
      <trkpt lat="46.10389" lon="4.4952">
        <ele>465.39999389648</ele>
        <time>2020-08-06T09:43:52.000Z</time>
      </trkpt>
      <trkpt lat="46.10419" lon="4.49511">
        <ele>464.39999389648</ele>
        <time>2020-08-06T09:43:59.000Z</time>
      </trkpt>
      <trkpt lat="46.10448" lon="4.49504">
        <ele>463.39999389648</ele>
        <time>2020-08-06T09:44:05.000Z</time>
      </trkpt>
      <trkpt lat="46.10484" lon="4.49509">
        <ele>463.20001220703</ele>
        <time>2020-08-06T09:44:12.000Z</time>
      </trkpt>
      <trkpt lat="46.10513" lon="4.49527">
        <ele>462</ele>
        <time>2020-08-06T09:44:18.000Z</time>
      </trkpt>
      <trkpt lat="46.10548" lon="4.49562">
        <ele>461.60000610352</ele>
        <time>2020-08-06T09:44:26.000Z</time>
      </trkpt>
      <trkpt lat="46.1057" lon="4.49582">
        <ele>462.20001220703</ele>
        <time>2020-08-06T09:44:31.000Z</time>
      </trkpt>
      <trkpt lat="46.10585" lon="4.49592">
        <ele>463.39999389648</ele>
        <time>2020-08-06T09:44:34.000Z</time>
      </trkpt>
      <trkpt lat="46.10605" lon="4.49602">
        <ele>464.39999389648</ele>
        <time>2020-08-06T09:44:38.000Z</time>
      </trkpt>
      <trkpt lat="46.10622" lon="4.49605">
        <ele>464.79998779297</ele>
        <time>2020-08-06T09:44:41.000Z</time>
      </trkpt>
      <trkpt lat="46.10638" lon="4.49604">
        <ele>465</ele>
        <time>2020-08-06T09:44:44.000Z</time>
      </trkpt>
      <trkpt lat="46.1065" lon="4.49602">
        <ele>465.60000610352</ele>
        <time>2020-08-06T09:44:46.000Z</time>
      </trkpt>
      <trkpt lat="46.10691" lon="4.49587">
        <ele>468.39999389648</ele>
        <time>2020-08-06T09:44:53.000Z</time>
      </trkpt>
      <trkpt lat="46.10702" lon="4.49583">
        <ele>468.79998779297</ele>
        <time>2020-08-06T09:44:55.000Z</time>
      </trkpt>
      <trkpt lat="46.10727" lon="4.49573">
        <ele>468.20001220703</ele>
        <time>2020-08-06T09:45:00.000Z</time>
      </trkpt>
      <trkpt lat="46.10738" lon="4.49568">
        <ele>469.39999389648</ele>
        <time>2020-08-06T09:45:02.000Z</time>
      </trkpt>
      <trkpt lat="46.10776" lon="4.49549">
        <ele>470</ele>
        <time>2020-08-06T09:45:09.000Z</time>
      </trkpt>
      <trkpt lat="46.10816" lon="4.49521">
        <ele>468.39999389648</ele>
        <time>2020-08-06T09:45:17.000Z</time>
      </trkpt>
      <trkpt lat="46.10852" lon="4.495">
        <ele>468</ele>
        <time>2020-08-06T09:45:24.000Z</time>
      </trkpt>
      <trkpt lat="46.10879" lon="4.49494">
        <ele>467.60000610352</ele>
        <time>2020-08-06T09:45:29.000Z</time>
      </trkpt>
      <trkpt lat="46.10899" lon="4.4949">
        <ele>467.79998779297</ele>
        <time>2020-08-06T09:45:33.000Z</time>
      </trkpt>
      <trkpt lat="46.10909" lon="4.49489">
        <ele>468.60000610352</ele>
        <time>2020-08-06T09:45:35.000Z</time>
      </trkpt>
      <trkpt lat="46.10933" lon="4.49486">
        <ele>470.20001220703</ele>
        <time>2020-08-06T09:45:40.000Z</time>
      </trkpt>
      <trkpt lat="46.10962" lon="4.49484">
        <ele>471.79998779297</ele>
        <time>2020-08-06T09:45:46.000Z</time>
      </trkpt>
      <trkpt lat="46.10971" lon="4.49482">
        <ele>472.20001220703</ele>
        <time>2020-08-06T09:45:48.000Z</time>
      </trkpt>
      <trkpt lat="46.10994" lon="4.49476">
        <ele>474.60000610352</ele>
        <time>2020-08-06T09:45:53.000Z</time>
      </trkpt>
      <trkpt lat="46.11003" lon="4.49472">
        <ele>475.60000610352</ele>
        <time>2020-08-06T09:45:55.000Z</time>
      </trkpt>
      <trkpt lat="46.11025" lon="4.49462">
        <ele>476.20001220703</ele>
        <time>2020-08-06T09:46:00.000Z</time>
      </trkpt>
      <trkpt lat="46.11038" lon="4.49456">
        <ele>476.60000610352</ele>
        <time>2020-08-06T09:46:03.000Z</time>
      </trkpt>
      <trkpt lat="46.11068" lon="4.49441">
        <ele>478.60000610352</ele>
        <time>2020-08-06T09:46:10.000Z</time>
      </trkpt>
      <trkpt lat="46.11073" lon="4.49439">
        <ele>479.20001220703</ele>
        <time>2020-08-06T09:46:11.000Z</time>
      </trkpt>
      <trkpt lat="46.11119" lon="4.49416">
        <ele>484</ele>
        <time>2020-08-06T09:46:22.000Z</time>
      </trkpt>
      <trkpt lat="46.11148" lon="4.49402">
        <ele>483</ele>
        <time>2020-08-06T09:46:29.000Z</time>
      </trkpt>
      <trkpt lat="46.11179" lon="4.49385">
        <ele>484.79998779297</ele>
        <time>2020-08-06T09:46:37.000Z</time>
      </trkpt>
      <trkpt lat="46.11187" lon="4.49381">
        <ele>484.60000610352</ele>
        <time>2020-08-06T09:46:39.000Z</time>
      </trkpt>
      <trkpt lat="46.11209" lon="4.49368">
        <ele>483.79998779297</ele>
        <time>2020-08-06T09:46:45.000Z</time>
      </trkpt>
      <trkpt lat="46.11221" lon="4.49362">
        <ele>485</ele>
        <time>2020-08-06T09:46:48.000Z</time>
      </trkpt>
      <trkpt lat="46.11236" lon="4.49353">
        <ele>486</ele>
        <time>2020-08-06T09:46:52.000Z</time>
      </trkpt>
      <trkpt lat="46.11247" lon="4.49348">
        <ele>487.39999389648</ele>
        <time>2020-08-06T09:46:55.000Z</time>
      </trkpt>
      <trkpt lat="46.11251" lon="4.49346">
        <ele>487.79998779297</ele>
        <time>2020-08-06T09:46:56.000Z</time>
      </trkpt>
      <trkpt lat="46.11279" lon="4.49335">
        <ele>491.39999389648</ele>
        <time>2020-08-06T09:47:03.000Z</time>
      </trkpt>
      <trkpt lat="46.11282" lon="4.49334">
        <ele>491.60000610352</ele>
        <time>2020-08-06T09:47:04.000Z</time>
      </trkpt>
      <trkpt lat="46.11302" lon="4.49328">
        <ele>491.60000610352</ele>
        <time>2020-08-06T09:47:09.000Z</time>
      </trkpt>
      <trkpt lat="46.11306" lon="4.49326">
        <ele>491.60000610352</ele>
        <time>2020-08-06T09:47:10.000Z</time>
      </trkpt>
      <trkpt lat="46.11334" lon="4.49319">
        <ele>490.39999389648</ele>
        <time>2020-08-06T09:47:17.000Z</time>
      </trkpt>
      <trkpt lat="46.11338" lon="4.49318">
        <ele>490.20001220703</ele>
        <time>2020-08-06T09:47:18.000Z</time>
      </trkpt>
      <trkpt lat="46.11368" lon="4.49314">
        <ele>489</ele>
        <time>2020-08-06T09:47:25.000Z</time>
      </trkpt>
      <trkpt lat="46.11376" lon="4.49313">
        <ele>488.60000610352</ele>
        <time>2020-08-06T09:47:27.000Z</time>
      </trkpt>
      <trkpt lat="46.11397" lon="4.49313">
        <ele>488.60000610352</ele>
        <time>2020-08-06T09:47:32.000Z</time>
      </trkpt>
      <trkpt lat="46.11406" lon="4.49314">
        <ele>488.79998779297</ele>
        <time>2020-08-06T09:47:34.000Z</time>
      </trkpt>
      <trkpt lat="46.11435" lon="4.49314">
        <ele>489.39999389648</ele>
        <time>2020-08-06T09:47:41.000Z</time>
      </trkpt>
      <trkpt lat="46.11444" lon="4.49315">
        <ele>489.79998779297</ele>
        <time>2020-08-06T09:47:43.000Z</time>
      </trkpt>
      <trkpt lat="46.11471" lon="4.49314">
        <ele>490.39999389648</ele>
        <time>2020-08-06T09:47:49.000Z</time>
      </trkpt>
      <trkpt lat="46.11475" lon="4.49315">
        <ele>490.39999389648</ele>
        <time>2020-08-06T09:47:50.000Z</time>
      </trkpt>
      <trkpt lat="46.11494" lon="4.49315">
        <ele>489.60000610352</ele>
        <time>2020-08-06T09:47:54.000Z</time>
      </trkpt>
      <trkpt lat="46.11503" lon="4.49315">
        <ele>488.79998779297</ele>
        <time>2020-08-06T09:47:56.000Z</time>
      </trkpt>
      <trkpt lat="46.1152" lon="4.49316">
        <ele>488.60000610352</ele>
        <time>2020-08-06T09:48:00.000Z</time>
      </trkpt>
      <trkpt lat="46.11534" lon="4.49317">
        <ele>488.60000610352</ele>
        <time>2020-08-06T09:48:03.000Z</time>
      </trkpt>
      <trkpt lat="46.11539" lon="4.49317">
        <ele>488.60000610352</ele>
        <time>2020-08-06T09:48:04.000Z</time>
      </trkpt>
      <trkpt lat="46.11574" lon="4.49318">
        <ele>488.39999389648</ele>
        <time>2020-08-06T09:48:12.000Z</time>
      </trkpt>
      <trkpt lat="46.11611" lon="4.49317">
        <ele>488.60000610352</ele>
        <time>2020-08-06T09:48:20.000Z</time>
      </trkpt>
      <trkpt lat="46.11647" lon="4.49307">
        <ele>489</ele>
        <time>2020-08-06T09:48:28.000Z</time>
      </trkpt>
      <trkpt lat="46.11669" lon="4.49299">
        <ele>490</ele>
        <time>2020-08-06T09:48:33.000Z</time>
      </trkpt>
      <trkpt lat="46.11686" lon="4.49293">
        <ele>489.60000610352</ele>
        <time>2020-08-06T09:48:37.000Z</time>
      </trkpt>
      <trkpt lat="46.11725" lon="4.4928">
        <ele>490.39999389648</ele>
        <time>2020-08-06T09:48:46.000Z</time>
      </trkpt>
      <trkpt lat="46.11734" lon="4.49279">
        <ele>491.20001220703</ele>
        <time>2020-08-06T09:48:48.000Z</time>
      </trkpt>
      <trkpt lat="46.11769" lon="4.49272">
        <ele>494.79998779297</ele>
        <time>2020-08-06T09:48:56.000Z</time>
      </trkpt>
      <trkpt lat="46.11793" lon="4.49268">
        <ele>497.39999389648</ele>
        <time>2020-08-06T09:49:01.000Z</time>
      </trkpt>
      <trkpt lat="46.11807" lon="4.49265">
        <ele>496.60000610352</ele>
        <time>2020-08-06T09:49:04.000Z</time>
      </trkpt>
      <trkpt lat="46.11843" lon="4.49258">
        <ele>499.60000610352</ele>
        <time>2020-08-06T09:49:12.000Z</time>
      </trkpt>
      <trkpt lat="46.11847" lon="4.49258">
        <ele>500</ele>
        <time>2020-08-06T09:49:13.000Z</time>
      </trkpt>
      <trkpt lat="46.11869" lon="4.49255">
        <ele>501.79998779297</ele>
        <time>2020-08-06T09:49:18.000Z</time>
      </trkpt>
      <trkpt lat="46.11874" lon="4.49255">
        <ele>501.60000610352</ele>
        <time>2020-08-06T09:49:19.000Z</time>
      </trkpt>
      <trkpt lat="46.11878" lon="4.49254">
        <ele>501.39999389648</ele>
        <time>2020-08-06T09:49:20.000Z</time>
      </trkpt>
      <trkpt lat="46.11901" lon="4.49257">
        <ele>501.20001220703</ele>
        <time>2020-08-06T09:49:25.000Z</time>
      </trkpt>
      <trkpt lat="46.11918" lon="4.49261">
        <ele>502</ele>
        <time>2020-08-06T09:49:29.000Z</time>
      </trkpt>
      <trkpt lat="46.11931" lon="4.49262">
        <ele>502.20001220703</ele>
        <time>2020-08-06T09:49:32.000Z</time>
      </trkpt>
      <trkpt lat="46.11952" lon="4.49262">
        <ele>502.20001220703</ele>
        <time>2020-08-06T09:49:37.000Z</time>
      </trkpt>
      <trkpt lat="46.11956" lon="4.49262">
        <ele>502.20001220703</ele>
        <time>2020-08-06T09:49:38.000Z</time>
      </trkpt>
      <trkpt lat="46.11978" lon="4.49263">
        <ele>504.79998779297</ele>
        <time>2020-08-06T09:49:43.000Z</time>
      </trkpt>
      <trkpt lat="46.11982" lon="4.49263">
        <ele>504.60000610352</ele>
        <time>2020-08-06T09:49:44.000Z</time>
      </trkpt>
      <trkpt lat="46.11991" lon="4.49264">
        <ele>504.60000610352</ele>
        <time>2020-08-06T09:49:46.000Z</time>
      </trkpt>
      <trkpt lat="46.12004" lon="4.49266">
        <ele>504.39999389648</ele>
        <time>2020-08-06T09:49:49.000Z</time>
      </trkpt>
      <trkpt lat="46.12022" lon="4.49269">
        <ele>504</ele>
        <time>2020-08-06T09:49:53.000Z</time>
      </trkpt>
      <trkpt lat="46.12026" lon="4.4927">
        <ele>504</ele>
        <time>2020-08-06T09:49:54.000Z</time>
      </trkpt>
      <trkpt lat="46.12043" lon="4.49274">
        <ele>503.79998779297</ele>
        <time>2020-08-06T09:49:58.000Z</time>
      </trkpt>
      <trkpt lat="46.1206" lon="4.49278">
        <ele>504.39999389648</ele>
        <time>2020-08-06T09:50:02.000Z</time>
      </trkpt>
      <trkpt lat="46.12094" lon="4.49279">
        <ele>506.39999389648</ele>
        <time>2020-08-06T09:50:10.000Z</time>
      </trkpt>
      <trkpt lat="46.12122" lon="4.49275">
        <ele>508.20001220703</ele>
        <time>2020-08-06T09:50:17.000Z</time>
      </trkpt>
      <trkpt lat="46.1213" lon="4.49274">
        <ele>508.79998779297</ele>
        <time>2020-08-06T09:50:19.000Z</time>
      </trkpt>
      <trkpt lat="46.12142" lon="4.49273">
        <ele>509.39999389648</ele>
        <time>2020-08-06T09:50:22.000Z</time>
      </trkpt>
      <trkpt lat="46.12146" lon="4.49274">
        <ele>509.79998779297</ele>
        <time>2020-08-06T09:50:23.000Z</time>
      </trkpt>
      <trkpt lat="46.12171" lon="4.4927">
        <ele>515.40002441406</ele>
        <time>2020-08-06T09:50:29.000Z</time>
      </trkpt>
      <trkpt lat="46.12204" lon="4.49264">
        <ele>522.59997558594</ele>
        <time>2020-08-06T09:50:37.000Z</time>
      </trkpt>
      <trkpt lat="46.12208" lon="4.49262">
        <ele>523.20001220703</ele>
        <time>2020-08-06T09:50:38.000Z</time>
      </trkpt>
      <trkpt lat="46.12235" lon="4.49239">
        <ele>522.59997558594</ele>
        <time>2020-08-06T09:50:45.000Z</time>
      </trkpt>
      <trkpt lat="46.12257" lon="4.49211">
        <ele>522.59997558594</ele>
        <time>2020-08-06T09:50:52.000Z</time>
      </trkpt>
      <trkpt lat="46.12279" lon="4.49184">
        <ele>525.79998779297</ele>
        <time>2020-08-06T09:50:59.000Z</time>
      </trkpt>
      <trkpt lat="46.123" lon="4.49158">
        <ele>522.40002441406</ele>
        <time>2020-08-06T09:51:06.000Z</time>
      </trkpt>
      <trkpt lat="46.12314" lon="4.49143">
        <ele>518.20001220703</ele>
        <time>2020-08-06T09:51:10.000Z</time>
      </trkpt>
      <trkpt lat="46.12323" lon="4.49131">
        <ele>518.59997558594</ele>
        <time>2020-08-06T09:51:13.000Z</time>
      </trkpt>
      <trkpt lat="46.12351" lon="4.49104">
        <ele>521.40002441406</ele>
        <time>2020-08-06T09:51:21.000Z</time>
      </trkpt>
      <trkpt lat="46.12361" lon="4.49094">
        <ele>524.40002441406</ele>
        <time>2020-08-06T09:51:24.000Z</time>
      </trkpt>
      <trkpt lat="46.12367" lon="4.49087">
        <ele>525.59997558594</ele>
        <time>2020-08-06T09:51:26.000Z</time>
      </trkpt>
      <trkpt lat="46.12378" lon="4.49076">
        <ele>522.59997558594</ele>
        <time>2020-08-06T09:51:29.000Z</time>
      </trkpt>
      <trkpt lat="46.12392" lon="4.49063">
        <ele>518.79998779297</ele>
        <time>2020-08-06T09:51:33.000Z</time>
      </trkpt>
      <trkpt lat="46.12408" lon="4.49047">
        <ele>517.79998779297</ele>
        <time>2020-08-06T09:51:38.000Z</time>
      </trkpt>
      <trkpt lat="46.12419" lon="4.49038">
        <ele>516.20001220703</ele>
        <time>2020-08-06T09:51:41.000Z</time>
      </trkpt>
      <trkpt lat="46.12431" lon="4.49029">
        <ele>516</ele>
        <time>2020-08-06T09:51:44.000Z</time>
      </trkpt>
      <trkpt lat="46.12434" lon="4.49026">
        <ele>516.59997558594</ele>
        <time>2020-08-06T09:51:45.000Z</time>
      </trkpt>
      <trkpt lat="46.12446" lon="4.49019">
        <ele>518</ele>
        <time>2020-08-06T09:51:48.000Z</time>
      </trkpt>
      <trkpt lat="46.12454" lon="4.49015">
        <ele>518.79998779297</ele>
        <time>2020-08-06T09:51:50.000Z</time>
      </trkpt>
      <trkpt lat="46.12458" lon="4.49013">
        <ele>519.20001220703</ele>
        <time>2020-08-06T09:51:51.000Z</time>
      </trkpt>
      <trkpt lat="46.12473" lon="4.49007">
        <ele>518.59997558594</ele>
        <time>2020-08-06T09:51:55.000Z</time>
      </trkpt>
      <trkpt lat="46.12485" lon="4.49004">
        <ele>518.20001220703</ele>
        <time>2020-08-06T09:51:58.000Z</time>
      </trkpt>
      <trkpt lat="46.12489" lon="4.49004">
        <ele>518</ele>
        <time>2020-08-06T09:51:59.000Z</time>
      </trkpt>
      <trkpt lat="46.12513" lon="4.49001">
        <ele>517.40002441406</ele>
        <time>2020-08-06T09:52:05.000Z</time>
      </trkpt>
      <trkpt lat="46.1252" lon="4.49">
        <ele>517.20001220703</ele>
        <time>2020-08-06T09:52:07.000Z</time>
      </trkpt>
      <trkpt lat="46.12523" lon="4.49">
        <ele>517</ele>
        <time>2020-08-06T09:52:08.000Z</time>
      </trkpt>
      <trkpt lat="46.12546" lon="4.48998">
        <ele>517.79998779297</ele>
        <time>2020-08-06T09:52:14.000Z</time>
      </trkpt>
      <trkpt lat="46.12557" lon="4.48999">
        <ele>518</ele>
        <time>2020-08-06T09:52:17.000Z</time>
      </trkpt>
      <trkpt lat="46.12568" lon="4.49004">
        <ele>517.79998779297</ele>
        <time>2020-08-06T09:52:20.000Z</time>
      </trkpt>
      <trkpt lat="46.12594" lon="4.49018">
        <ele>516.40002441406</ele>
        <time>2020-08-06T09:52:27.000Z</time>
      </trkpt>
      <trkpt lat="46.12623" lon="4.4904">
        <ele>516</ele>
        <time>2020-08-06T09:52:35.000Z</time>
      </trkpt>
      <trkpt lat="46.12656" lon="4.4907">
        <ele>520.79998779297</ele>
        <time>2020-08-06T09:52:44.000Z</time>
      </trkpt>
      <trkpt lat="46.12664" lon="4.49076">
        <ele>522.20001220703</ele>
        <time>2020-08-06T09:52:46.000Z</time>
      </trkpt>
      <trkpt lat="46.12677" lon="4.49081">
        <ele>523.40002441406</ele>
        <time>2020-08-06T09:52:49.000Z</time>
      </trkpt>
      <trkpt lat="46.12681" lon="4.49082">
        <ele>523.59997558594</ele>
        <time>2020-08-06T09:52:50.000Z</time>
      </trkpt>
      <trkpt lat="46.12685" lon="4.49082">
        <ele>523.79998779297</ele>
        <time>2020-08-06T09:52:51.000Z</time>
      </trkpt>
      <trkpt lat="46.12698" lon="4.4908">
        <ele>523.79998779297</ele>
        <time>2020-08-06T09:52:54.000Z</time>
      </trkpt>
      <trkpt lat="46.12702" lon="4.49079">
        <ele>523.79998779297</ele>
        <time>2020-08-06T09:52:55.000Z</time>
      </trkpt>
      <trkpt lat="46.12729" lon="4.49069">
        <ele>523.20001220703</ele>
        <time>2020-08-06T09:53:02.000Z</time>
      </trkpt>
      <trkpt lat="46.12733" lon="4.49068">
        <ele>523</ele>
        <time>2020-08-06T09:53:03.000Z</time>
      </trkpt>
      <trkpt lat="46.12749" lon="4.49062">
        <ele>522.59997558594</ele>
        <time>2020-08-06T09:53:07.000Z</time>
      </trkpt>
      <trkpt lat="46.12757" lon="4.49059">
        <ele>522.40002441406</ele>
        <time>2020-08-06T09:53:09.000Z</time>
      </trkpt>
      <trkpt lat="46.12775" lon="4.49054">
        <ele>521.79998779297</ele>
        <time>2020-08-06T09:53:14.000Z</time>
      </trkpt>
      <trkpt lat="46.12786" lon="4.49051">
        <ele>521.59997558594</ele>
        <time>2020-08-06T09:53:17.000Z</time>
      </trkpt>
      <trkpt lat="46.1279" lon="4.4905">
        <ele>521.59997558594</ele>
        <time>2020-08-06T09:53:18.000Z</time>
      </trkpt>
      <trkpt lat="46.12804" lon="4.49048">
        <ele>521.40002441406</ele>
        <time>2020-08-06T09:53:22.000Z</time>
      </trkpt>
      <trkpt lat="46.12817" lon="4.49045">
        <ele>521.59997558594</ele>
        <time>2020-08-06T09:53:26.000Z</time>
      </trkpt>
      <trkpt lat="46.12837" lon="4.49043">
        <ele>523.20001220703</ele>
        <time>2020-08-06T09:53:32.000Z</time>
      </trkpt>
      <trkpt lat="46.1284" lon="4.49042">
        <ele>523.40002441406</ele>
        <time>2020-08-06T09:53:33.000Z</time>
      </trkpt>
      <trkpt lat="46.12849" lon="4.49041">
        <ele>524.20001220703</ele>
        <time>2020-08-06T09:53:36.000Z</time>
      </trkpt>
      <trkpt lat="46.12858" lon="4.49041">
        <ele>525</ele>
        <time>2020-08-06T09:53:39.000Z</time>
      </trkpt>
      <trkpt lat="46.12861" lon="4.49041">
        <ele>525.20001220703</ele>
        <time>2020-08-06T09:53:40.000Z</time>
      </trkpt>
      <trkpt lat="46.12877" lon="4.49039">
        <ele>526.40002441406</ele>
        <time>2020-08-06T09:53:45.000Z</time>
      </trkpt>
      <trkpt lat="46.12886" lon="4.49038">
        <ele>527</ele>
        <time>2020-08-06T09:53:48.000Z</time>
      </trkpt>
      <trkpt lat="46.12916" lon="4.49031">
        <ele>530.40002441406</ele>
        <time>2020-08-06T09:53:57.000Z</time>
      </trkpt>
      <trkpt lat="46.12919" lon="4.4903">
        <ele>530.59997558594</ele>
        <time>2020-08-06T09:53:58.000Z</time>
      </trkpt>
      <trkpt lat="46.12944" lon="4.49013">
        <ele>533</ele>
        <time>2020-08-06T09:54:06.000Z</time>
      </trkpt>
      <trkpt lat="46.12947" lon="4.4901">
        <ele>533</ele>
        <time>2020-08-06T09:54:07.000Z</time>
      </trkpt>
      <trkpt lat="46.12962" lon="4.48997">
        <ele>532.59997558594</ele>
        <time>2020-08-06T09:54:12.000Z</time>
      </trkpt>
      <trkpt lat="46.1297" lon="4.48989">
        <ele>532</ele>
        <time>2020-08-06T09:54:15.000Z</time>
      </trkpt>
      <trkpt lat="46.12993" lon="4.48968">
        <ele>530.40002441406</ele>
        <time>2020-08-06T09:54:23.000Z</time>
      </trkpt>
      <trkpt lat="46.13017" lon="4.48953">
        <ele>528.40002441406</ele>
        <time>2020-08-06T09:54:30.000Z</time>
      </trkpt>
      <trkpt lat="46.13021" lon="4.48951">
        <ele>528.40002441406</ele>
        <time>2020-08-06T09:54:31.000Z</time>
      </trkpt>
      <trkpt lat="46.13047" lon="4.48949">
        <ele>529.40002441406</ele>
        <time>2020-08-06T09:54:38.000Z</time>
      </trkpt>
      <trkpt lat="46.13073" lon="4.48953">
        <ele>530.79998779297</ele>
        <time>2020-08-06T09:54:45.000Z</time>
      </trkpt>
      <trkpt lat="46.1308" lon="4.48955">
        <ele>531.20001220703</ele>
        <time>2020-08-06T09:54:47.000Z</time>
      </trkpt>
      <trkpt lat="46.13109" lon="4.48961">
        <ele>532.40002441406</ele>
        <time>2020-08-06T09:54:55.000Z</time>
      </trkpt>
      <trkpt lat="46.13112" lon="4.48962">
        <ele>532.59997558594</ele>
        <time>2020-08-06T09:54:56.000Z</time>
      </trkpt>
      <trkpt lat="46.13137" lon="4.48967">
        <ele>533.79998779297</ele>
        <time>2020-08-06T09:55:03.000Z</time>
      </trkpt>
      <trkpt lat="46.13162" lon="4.48973">
        <ele>534.40002441406</ele>
        <time>2020-08-06T09:55:10.000Z</time>
      </trkpt>
      <trkpt lat="46.13192" lon="4.48984">
        <ele>536</ele>
        <time>2020-08-06T09:55:18.000Z</time>
      </trkpt>
      <trkpt lat="46.13196" lon="4.48987">
        <ele>536.20001220703</ele>
        <time>2020-08-06T09:55:19.000Z</time>
      </trkpt>
      <trkpt lat="46.13221" lon="4.48996">
        <ele>537.59997558594</ele>
        <time>2020-08-06T09:55:25.000Z</time>
      </trkpt>
      <trkpt lat="46.13231" lon="4.48997">
        <ele>538</ele>
        <time>2020-08-06T09:55:27.000Z</time>
      </trkpt>
      <trkpt lat="46.13255" lon="4.48994">
        <ele>539.40002441406</ele>
        <time>2020-08-06T09:55:32.000Z</time>
      </trkpt>
      <trkpt lat="46.13292" lon="4.48991">
        <ele>540.40002441406</ele>
        <time>2020-08-06T09:55:40.000Z</time>
      </trkpt>
      <trkpt lat="46.1334" lon="4.48988">
        <ele>539.79998779297</ele>
        <time>2020-08-06T09:55:50.000Z</time>
      </trkpt>
      <trkpt lat="46.13367" lon="4.48986">
        <ele>539.59997558594</ele>
        <time>2020-08-06T09:55:56.000Z</time>
      </trkpt>
      <trkpt lat="46.13384" lon="4.48985">
        <ele>539.40002441406</ele>
        <time>2020-08-06T09:56:00.000Z</time>
      </trkpt>
      <trkpt lat="46.13393" lon="4.48985">
        <ele>539.20001220703</ele>
        <time>2020-08-06T09:56:02.000Z</time>
      </trkpt>
      <trkpt lat="46.13424" lon="4.48989">
        <ele>538.59997558594</ele>
        <time>2020-08-06T09:56:09.000Z</time>
      </trkpt>
      <trkpt lat="46.13451" lon="4.48997">
        <ele>539.40002441406</ele>
        <time>2020-08-06T09:56:15.000Z</time>
      </trkpt>
      <trkpt lat="46.13464" lon="4.49001">
        <ele>540</ele>
        <time>2020-08-06T09:56:18.000Z</time>
      </trkpt>
      <trkpt lat="46.1348" lon="4.49009">
        <ele>541</ele>
        <time>2020-08-06T09:56:22.000Z</time>
      </trkpt>
      <trkpt lat="46.13499" lon="4.49017">
        <ele>541.59997558594</ele>
        <time>2020-08-06T09:56:27.000Z</time>
      </trkpt>
      <trkpt lat="46.13511" lon="4.49022">
        <ele>541.79998779297</ele>
        <time>2020-08-06T09:56:30.000Z</time>
      </trkpt>
      <trkpt lat="46.13527" lon="4.49029">
        <ele>542.20001220703</ele>
        <time>2020-08-06T09:56:34.000Z</time>
      </trkpt>
      <trkpt lat="46.13539" lon="4.49034">
        <ele>542.59997558594</ele>
        <time>2020-08-06T09:56:37.000Z</time>
      </trkpt>
      <trkpt lat="46.13547" lon="4.49037">
        <ele>542.79998779297</ele>
        <time>2020-08-06T09:56:39.000Z</time>
      </trkpt>
      <trkpt lat="46.13551" lon="4.49038">
        <ele>543</ele>
        <time>2020-08-06T09:56:40.000Z</time>
      </trkpt>
      <trkpt lat="46.13574" lon="4.49049">
        <ele>544</ele>
        <time>2020-08-06T09:56:46.000Z</time>
      </trkpt>
      <trkpt lat="46.13585" lon="4.49053">
        <ele>544.59997558594</ele>
        <time>2020-08-06T09:56:49.000Z</time>
      </trkpt>
      <trkpt lat="46.13588" lon="4.49055">
        <ele>544.79998779297</ele>
        <time>2020-08-06T09:56:50.000Z</time>
      </trkpt>
      <trkpt lat="46.13609" lon="4.49064">
        <ele>546.20001220703</ele>
        <time>2020-08-06T09:56:56.000Z</time>
      </trkpt>
      <trkpt lat="46.13631" lon="4.49075">
        <ele>547.79998779297</ele>
        <time>2020-08-06T09:57:03.000Z</time>
      </trkpt>
      <trkpt lat="46.13652" lon="4.49085">
        <ele>548.59997558594</ele>
        <time>2020-08-06T09:57:09.000Z</time>
      </trkpt>
      <trkpt lat="46.13676" lon="4.49096">
        <ele>548.20001220703</ele>
        <time>2020-08-06T09:57:16.000Z</time>
      </trkpt>
      <trkpt lat="46.13682" lon="4.49099">
        <ele>548</ele>
        <time>2020-08-06T09:57:18.000Z</time>
      </trkpt>
      <trkpt lat="46.137" lon="4.49106">
        <ele>547.59997558594</ele>
        <time>2020-08-06T09:57:23.000Z</time>
      </trkpt>
      <trkpt lat="46.13724" lon="4.49117">
        <ele>547.40002441406</ele>
        <time>2020-08-06T09:57:30.000Z</time>
      </trkpt>
      <trkpt lat="46.13752" lon="4.49132">
        <ele>552.20001220703</ele>
        <time>2020-08-06T09:57:38.000Z</time>
      </trkpt>
      <trkpt lat="46.13756" lon="4.49134">
        <ele>552.79998779297</ele>
        <time>2020-08-06T09:57:39.000Z</time>
      </trkpt>
      <trkpt lat="46.13763" lon="4.49139">
        <ele>554.40002441406</ele>
        <time>2020-08-06T09:57:41.000Z</time>
      </trkpt>
      <trkpt lat="46.13777" lon="4.49148">
        <ele>557.20001220703</ele>
        <time>2020-08-06T09:57:45.000Z</time>
      </trkpt>
      <trkpt lat="46.13792" lon="4.49155">
        <ele>559.79998779297</ele>
        <time>2020-08-06T09:57:49.000Z</time>
      </trkpt>
      <trkpt lat="46.13803" lon="4.49161">
        <ele>561.59997558594</ele>
        <time>2020-08-06T09:57:52.000Z</time>
      </trkpt>
      <trkpt lat="46.13832" lon="4.49173">
        <ele>562.40002441406</ele>
        <time>2020-08-06T09:58:00.000Z</time>
      </trkpt>
      <trkpt lat="46.13835" lon="4.49174">
        <ele>562.40002441406</ele>
        <time>2020-08-06T09:58:01.000Z</time>
      </trkpt>
      <trkpt lat="46.13846" lon="4.49177">
        <ele>561.79998779297</ele>
        <time>2020-08-06T09:58:04.000Z</time>
      </trkpt>
      <trkpt lat="46.13853" lon="4.49179">
        <ele>561.59997558594</ele>
        <time>2020-08-06T09:58:06.000Z</time>
      </trkpt>
      <trkpt lat="46.1386" lon="4.49182">
        <ele>561.20001220703</ele>
        <time>2020-08-06T09:58:08.000Z</time>
      </trkpt>
      <trkpt lat="46.13864" lon="4.49182">
        <ele>561</ele>
        <time>2020-08-06T09:58:09.000Z</time>
      </trkpt>
      <trkpt lat="46.13872" lon="4.49183">
        <ele>560</ele>
        <time>2020-08-06T09:58:11.000Z</time>
      </trkpt>
      <trkpt lat="46.13884" lon="4.49182">
        <ele>559.59997558594</ele>
        <time>2020-08-06T09:58:14.000Z</time>
      </trkpt>
      <trkpt lat="46.13887" lon="4.4918">
        <ele>559.59997558594</ele>
        <time>2020-08-06T09:58:15.000Z</time>
      </trkpt>
      <trkpt lat="46.13891" lon="4.49179">
        <ele>559.59997558594</ele>
        <time>2020-08-06T09:58:16.000Z</time>
      </trkpt>
      <trkpt lat="46.13898" lon="4.49176">
        <ele>559.59997558594</ele>
        <time>2020-08-06T09:58:18.000Z</time>
      </trkpt>
      <trkpt lat="46.13905" lon="4.49172">
        <ele>559.40002441406</ele>
        <time>2020-08-06T09:58:20.000Z</time>
      </trkpt>
      <trkpt lat="46.13912" lon="4.49167">
        <ele>559.20001220703</ele>
        <time>2020-08-06T09:58:22.000Z</time>
      </trkpt>
      <trkpt lat="46.13916" lon="4.49165">
        <ele>559</ele>
        <time>2020-08-06T09:58:23.000Z</time>
      </trkpt>
      <trkpt lat="46.13936" lon="4.49149">
        <ele>558.79998779297</ele>
        <time>2020-08-06T09:58:29.000Z</time>
      </trkpt>
      <trkpt lat="46.13943" lon="4.49143">
        <ele>559.40002441406</ele>
        <time>2020-08-06T09:58:31.000Z</time>
      </trkpt>
      <trkpt lat="46.13956" lon="4.49131">
        <ele>560.79998779297</ele>
        <time>2020-08-06T09:58:35.000Z</time>
      </trkpt>
      <trkpt lat="46.13966" lon="4.49119">
        <ele>561.59997558594</ele>
        <time>2020-08-06T09:58:38.000Z</time>
      </trkpt>
      <trkpt lat="46.13982" lon="4.49094">
        <ele>562</ele>
        <time>2020-08-06T09:58:44.000Z</time>
      </trkpt>
      <trkpt lat="46.13991" lon="4.49082">
        <ele>562.79998779297</ele>
        <time>2020-08-06T09:58:47.000Z</time>
      </trkpt>
      <trkpt lat="46.14003" lon="4.49068">
        <ele>564.20001220703</ele>
        <time>2020-08-06T09:58:51.000Z</time>
      </trkpt>
      <trkpt lat="46.14012" lon="4.49057">
        <ele>564.59997558594</ele>
        <time>2020-08-06T09:58:54.000Z</time>
      </trkpt>
      <trkpt lat="46.14018" lon="4.4905">
        <ele>564.59997558594</ele>
        <time>2020-08-06T09:58:56.000Z</time>
      </trkpt>
      <trkpt lat="46.14045" lon="4.49025">
        <ele>566.79998779297</ele>
        <time>2020-08-06T09:59:04.000Z</time>
      </trkpt>
      <trkpt lat="46.14056" lon="4.49016">
        <ele>566.59997558594</ele>
        <time>2020-08-06T09:59:07.000Z</time>
      </trkpt>
      <trkpt lat="46.14078" lon="4.49">
        <ele>567.59997558594</ele>
        <time>2020-08-06T09:59:13.000Z</time>
      </trkpt>
      <trkpt lat="46.14115" lon="4.48976">
        <ele>567.79998779297</ele>
        <time>2020-08-06T09:59:22.000Z</time>
      </trkpt>
      <trkpt lat="46.14157" lon="4.4895">
        <ele>564</ele>
        <time>2020-08-06T09:59:32.000Z</time>
      </trkpt>
      <trkpt lat="46.14179" lon="4.4894">
        <ele>564.79998779297</ele>
        <time>2020-08-06T09:59:37.000Z</time>
      </trkpt>
      <trkpt lat="46.14192" lon="4.48937">
        <ele>565.59997558594</ele>
        <time>2020-08-06T09:59:40.000Z</time>
      </trkpt>
      <trkpt lat="46.14213" lon="4.48934">
        <ele>566.79998779297</ele>
        <time>2020-08-06T09:59:45.000Z</time>
      </trkpt>
      <trkpt lat="46.14226" lon="4.48932">
        <ele>567.20001220703</ele>
        <time>2020-08-06T09:59:48.000Z</time>
      </trkpt>
      <trkpt lat="46.14243" lon="4.4893">
        <ele>567.20001220703</ele>
        <time>2020-08-06T09:59:52.000Z</time>
      </trkpt>
      <trkpt lat="46.14251" lon="4.4893">
        <ele>567.40002441406</ele>
        <time>2020-08-06T09:59:54.000Z</time>
      </trkpt>
      <trkpt lat="46.14255" lon="4.48931">
        <ele>567.40002441406</ele>
        <time>2020-08-06T09:59:55.000Z</time>
      </trkpt>
      <trkpt lat="46.14266" lon="4.48932">
        <ele>567.79998779297</ele>
        <time>2020-08-06T09:59:58.000Z</time>
      </trkpt>
      <trkpt lat="46.14277" lon="4.48934">
        <ele>568</ele>
        <time>2020-08-06T10:00:01.000Z</time>
      </trkpt>
      <trkpt lat="46.14284" lon="4.48937">
        <ele>568.40002441406</ele>
        <time>2020-08-06T10:00:03.000Z</time>
      </trkpt>
      <trkpt lat="46.14294" lon="4.4894">
        <ele>568.79998779297</ele>
        <time>2020-08-06T10:00:06.000Z</time>
      </trkpt>
      <trkpt lat="46.14305" lon="4.48944">
        <ele>569.40002441406</ele>
        <time>2020-08-06T10:00:09.000Z</time>
      </trkpt>
      <trkpt lat="46.14308" lon="4.48945">
        <ele>569.59997558594</ele>
        <time>2020-08-06T10:00:10.000Z</time>
      </trkpt>
      <trkpt lat="46.14319" lon="4.48949">
        <ele>570.40002441406</ele>
        <time>2020-08-06T10:00:13.000Z</time>
      </trkpt>
      <trkpt lat="46.14329" lon="4.4895">
        <ele>571.20001220703</ele>
        <time>2020-08-06T10:00:16.000Z</time>
      </trkpt>
      <trkpt lat="46.14333" lon="4.48951">
        <ele>571.40002441406</ele>
        <time>2020-08-06T10:00:17.000Z</time>
      </trkpt>
      <trkpt lat="46.1434" lon="4.48952">
        <ele>571.79998779297</ele>
        <time>2020-08-06T10:00:19.000Z</time>
      </trkpt>
      <trkpt lat="46.14356" lon="4.4895">
        <ele>572.59997558594</ele>
        <time>2020-08-06T10:00:24.000Z</time>
      </trkpt>
      <trkpt lat="46.14359" lon="4.48949">
        <ele>572.79998779297</ele>
        <time>2020-08-06T10:00:25.000Z</time>
      </trkpt>
      <trkpt lat="46.14371" lon="4.48944">
        <ele>573.20001220703</ele>
        <time>2020-08-06T10:00:29.000Z</time>
      </trkpt>
      <trkpt lat="46.14381" lon="4.48941">
        <ele>573.40002441406</ele>
        <time>2020-08-06T10:00:32.000Z</time>
      </trkpt>
      <trkpt lat="46.14411" lon="4.48931">
        <ele>574</ele>
        <time>2020-08-06T10:00:41.000Z</time>
      </trkpt>
      <trkpt lat="46.14431" lon="4.48925">
        <ele>574.79998779297</ele>
        <time>2020-08-06T10:00:47.000Z</time>
      </trkpt>
      <trkpt lat="46.14438" lon="4.48923">
        <ele>575</ele>
        <time>2020-08-06T10:00:49.000Z</time>
      </trkpt>
      <trkpt lat="46.1447" lon="4.48911">
        <ele>576.59997558594</ele>
        <time>2020-08-06T10:00:59.000Z</time>
      </trkpt>
      <trkpt lat="46.14479" lon="4.48906">
        <ele>577.20001220703</ele>
        <time>2020-08-06T10:01:02.000Z</time>
      </trkpt>
      <trkpt lat="46.14497" lon="4.48895">
        <ele>579.20001220703</ele>
        <time>2020-08-06T10:01:08.000Z</time>
      </trkpt>
      <trkpt lat="46.14524" lon="4.48879">
        <ele>580.20001220703</ele>
        <time>2020-08-06T10:01:17.000Z</time>
      </trkpt>
      <trkpt lat="46.14534" lon="4.48874">
        <ele>580.40002441406</ele>
        <time>2020-08-06T10:01:20.000Z</time>
      </trkpt>
      <trkpt lat="46.14543" lon="4.48868">
        <ele>580.40002441406</ele>
        <time>2020-08-06T10:01:23.000Z</time>
      </trkpt>
      <trkpt lat="46.14566" lon="4.48855">
        <ele>581.59997558594</ele>
        <time>2020-08-06T10:01:30.000Z</time>
      </trkpt>
      <trkpt lat="46.14575" lon="4.48849">
        <ele>582.59997558594</ele>
        <time>2020-08-06T10:01:33.000Z</time>
      </trkpt>
      <trkpt lat="46.14595" lon="4.48836">
        <ele>584.79998779297</ele>
        <time>2020-08-06T10:01:39.000Z</time>
      </trkpt>
      <trkpt lat="46.14598" lon="4.48834">
        <ele>585.20001220703</ele>
        <time>2020-08-06T10:01:40.000Z</time>
      </trkpt>
      <trkpt lat="46.14611" lon="4.48826">
        <ele>586.59997558594</ele>
        <time>2020-08-06T10:01:44.000Z</time>
      </trkpt>
      <trkpt lat="46.1462" lon="4.48818">
        <ele>587.59997558594</ele>
        <time>2020-08-06T10:01:47.000Z</time>
      </trkpt>
      <trkpt lat="46.14623" lon="4.48816">
        <ele>588</ele>
        <time>2020-08-06T10:01:48.000Z</time>
      </trkpt>
      <trkpt lat="46.14646" lon="4.48795">
        <ele>590.59997558594</ele>
        <time>2020-08-06T10:01:56.000Z</time>
      </trkpt>
      <trkpt lat="46.14654" lon="4.48786">
        <ele>591.59997558594</ele>
        <time>2020-08-06T10:01:59.000Z</time>
      </trkpt>
      <trkpt lat="46.14666" lon="4.4877">
        <ele>592.59997558594</ele>
        <time>2020-08-06T10:02:04.000Z</time>
      </trkpt>
      <trkpt lat="46.14681" lon="4.48751">
        <ele>593.79998779297</ele>
        <time>2020-08-06T10:02:10.000Z</time>
      </trkpt>
      <trkpt lat="46.14688" lon="4.48741">
        <ele>594.20001220703</ele>
        <time>2020-08-06T10:02:13.000Z</time>
      </trkpt>
      <trkpt lat="46.14704" lon="4.48718">
        <ele>594.59997558594</ele>
        <time>2020-08-06T10:02:20.000Z</time>
      </trkpt>
      <trkpt lat="46.14726" lon="4.48689">
        <ele>595.40002441406</ele>
        <time>2020-08-06T10:02:29.000Z</time>
      </trkpt>
      <trkpt lat="46.14733" lon="4.4868">
        <ele>595.40002441406</ele>
        <time>2020-08-06T10:02:32.000Z</time>
      </trkpt>
      <trkpt lat="46.14748" lon="4.48662">
        <ele>595.59997558594</ele>
        <time>2020-08-06T10:02:38.000Z</time>
      </trkpt>
      <trkpt lat="46.14756" lon="4.48653">
        <ele>596</ele>
        <time>2020-08-06T10:02:41.000Z</time>
      </trkpt>
      <trkpt lat="46.14771" lon="4.48634">
        <ele>596.59997558594</ele>
        <time>2020-08-06T10:02:47.000Z</time>
      </trkpt>
      <trkpt lat="46.14784" lon="4.48618">
        <ele>597</ele>
        <time>2020-08-06T10:02:52.000Z</time>
      </trkpt>
      <trkpt lat="46.14791" lon="4.48607">
        <ele>598</ele>
        <time>2020-08-06T10:02:55.000Z</time>
      </trkpt>
      <trkpt lat="46.14811" lon="4.48578">
        <ele>596.40002441406</ele>
        <time>2020-08-06T10:03:03.000Z</time>
      </trkpt>
      <trkpt lat="46.14822" lon="4.48561">
        <ele>595.59997558594</ele>
        <time>2020-08-06T10:03:08.000Z</time>
      </trkpt>
      <trkpt lat="46.14832" lon="4.48547">
        <ele>595</ele>
        <time>2020-08-06T10:03:12.000Z</time>
      </trkpt>
      <trkpt lat="46.14839" lon="4.48537">
        <ele>595.20001220703</ele>
        <time>2020-08-06T10:03:15.000Z</time>
      </trkpt>
      <trkpt lat="46.14853" lon="4.48522">
        <ele>596.20001220703</ele>
        <time>2020-08-06T10:03:20.000Z</time>
      </trkpt>
      <trkpt lat="46.14862" lon="4.48513">
        <ele>597.20001220703</ele>
        <time>2020-08-06T10:03:23.000Z</time>
      </trkpt>
      <trkpt lat="46.1488" lon="4.485">
        <ele>597.79998779297</ele>
        <time>2020-08-06T10:03:29.000Z</time>
      </trkpt>
      <trkpt lat="46.14883" lon="4.48498">
        <ele>597.79998779297</ele>
        <time>2020-08-06T10:03:30.000Z</time>
      </trkpt>
      <trkpt lat="46.14905" lon="4.48486">
        <ele>598.20001220703</ele>
        <time>2020-08-06T10:03:37.000Z</time>
      </trkpt>
      <trkpt lat="46.14911" lon="4.48482">
        <ele>598.20001220703</ele>
        <time>2020-08-06T10:03:39.000Z</time>
      </trkpt>
      <trkpt lat="46.14928" lon="4.48474">
        <ele>598.79998779297</ele>
        <time>2020-08-06T10:03:44.000Z</time>
      </trkpt>
      <trkpt lat="46.14938" lon="4.48469">
        <ele>599</ele>
        <time>2020-08-06T10:03:47.000Z</time>
      </trkpt>
      <trkpt lat="46.14958" lon="4.48461">
        <ele>599.79998779297</ele>
        <time>2020-08-06T10:03:53.000Z</time>
      </trkpt>
      <trkpt lat="46.14962" lon="4.4846">
        <ele>600</ele>
        <time>2020-08-06T10:03:54.000Z</time>
      </trkpt>
      <trkpt lat="46.14979" lon="4.48456">
        <ele>600.79998779297</ele>
        <time>2020-08-06T10:03:59.000Z</time>
      </trkpt>
      <trkpt lat="46.14989" lon="4.48454">
        <ele>600</ele>
        <time>2020-08-06T10:04:02.000Z</time>
      </trkpt>
      <trkpt lat="46.14996" lon="4.48454">
        <ele>599.79998779297</ele>
        <time>2020-08-06T10:04:04.000Z</time>
      </trkpt>
      <trkpt lat="46.15013" lon="4.4846">
        <ele>599.79998779297</ele>
        <time>2020-08-06T10:04:09.000Z</time>
      </trkpt>
      <trkpt lat="46.15016" lon="4.48463">
        <ele>600</ele>
        <time>2020-08-06T10:04:10.000Z</time>
      </trkpt>
      <trkpt lat="46.1503" lon="4.48478">
        <ele>601.20001220703</ele>
        <time>2020-08-06T10:04:15.000Z</time>
      </trkpt>
      <trkpt lat="46.15047" lon="4.48499">
        <ele>602.79998779297</ele>
        <time>2020-08-06T10:04:22.000Z</time>
      </trkpt>
      <trkpt lat="46.1505" lon="4.48503">
        <ele>603.20001220703</ele>
        <time>2020-08-06T10:04:23.000Z</time>
      </trkpt>
      <trkpt lat="46.15067" lon="4.48523">
        <ele>604.20001220703</ele>
        <time>2020-08-06T10:04:29.000Z</time>
      </trkpt>
      <trkpt lat="46.15082" lon="4.4854">
        <ele>604.40002441406</ele>
        <time>2020-08-06T10:04:34.000Z</time>
      </trkpt>
      <trkpt lat="46.1509" lon="4.4855">
        <ele>604.20001220703</ele>
        <time>2020-08-06T10:04:37.000Z</time>
      </trkpt>
      <trkpt lat="46.15107" lon="4.48571">
        <ele>603.79998779297</ele>
        <time>2020-08-06T10:04:43.000Z</time>
      </trkpt>
      <trkpt lat="46.15113" lon="4.48578">
        <ele>603.59997558594</ele>
        <time>2020-08-06T10:04:45.000Z</time>
      </trkpt>
      <trkpt lat="46.15124" lon="4.48591">
        <ele>603.40002441406</ele>
        <time>2020-08-06T10:04:49.000Z</time>
      </trkpt>
      <trkpt lat="46.15134" lon="4.48605">
        <ele>603.20001220703</ele>
        <time>2020-08-06T10:04:53.000Z</time>
      </trkpt>
      <trkpt lat="46.15152" lon="4.48631">
        <ele>603.59997558594</ele>
        <time>2020-08-06T10:05:00.000Z</time>
      </trkpt>
      <trkpt lat="46.15157" lon="4.48639">
        <ele>603.79998779297</ele>
        <time>2020-08-06T10:05:02.000Z</time>
      </trkpt>
      <trkpt lat="46.15173" lon="4.48676">
        <ele>606</ele>
        <time>2020-08-06T10:05:10.000Z</time>
      </trkpt>
      <trkpt lat="46.15179" lon="4.48712">
        <ele>608.79998779297</ele>
        <time>2020-08-06T10:05:17.000Z</time>
      </trkpt>
      <trkpt lat="46.1518" lon="4.48723">
        <ele>609</ele>
        <time>2020-08-06T10:05:19.000Z</time>
      </trkpt>
      <trkpt lat="46.15179" lon="4.48754">
        <ele>610.79998779297</ele>
        <time>2020-08-06T10:05:24.000Z</time>
      </trkpt>
      <trkpt lat="46.15179" lon="4.48801">
        <ele>614.40002441406</ele>
        <time>2020-08-06T10:05:31.000Z</time>
      </trkpt>
      <trkpt lat="46.15179" lon="4.48808">
        <ele>614.79998779297</ele>
        <time>2020-08-06T10:05:32.000Z</time>
      </trkpt>
      <trkpt lat="46.15182" lon="4.4883">
        <ele>614.79998779297</ele>
        <time>2020-08-06T10:05:35.000Z</time>
      </trkpt>
      <trkpt lat="46.15184" lon="4.48837">
        <ele>614.40002441406</ele>
        <time>2020-08-06T10:05:36.000Z</time>
      </trkpt>
      <trkpt lat="46.15186" lon="4.48852">
        <ele>613.79998779297</ele>
        <time>2020-08-06T10:05:38.000Z</time>
      </trkpt>
      <trkpt lat="46.15189" lon="4.4886">
        <ele>613.40002441406</ele>
        <time>2020-08-06T10:05:39.000Z</time>
      </trkpt>
      <trkpt lat="46.15191" lon="4.48867">
        <ele>612.79998779297</ele>
        <time>2020-08-06T10:05:40.000Z</time>
      </trkpt>
      <trkpt lat="46.15196" lon="4.48882">
        <ele>612.79998779297</ele>
        <time>2020-08-06T10:05:42.000Z</time>
      </trkpt>
      <trkpt lat="46.15199" lon="4.48889">
        <ele>612.79998779297</ele>
        <time>2020-08-06T10:05:43.000Z</time>
      </trkpt>
      <trkpt lat="46.15209" lon="4.48908">
        <ele>612.40002441406</ele>
        <time>2020-08-06T10:05:46.000Z</time>
      </trkpt>
      <trkpt lat="46.15228" lon="4.48934">
        <ele>611.20001220703</ele>
        <time>2020-08-06T10:05:52.000Z</time>
      </trkpt>
      <trkpt lat="46.15232" lon="4.48938">
        <ele>611.20001220703</ele>
        <time>2020-08-06T10:05:53.000Z</time>
      </trkpt>
      <trkpt lat="46.15258" lon="4.48971">
        <ele>612</ele>
        <time>2020-08-06T10:06:01.000Z</time>
      </trkpt>
      <trkpt lat="46.15271" lon="4.48986">
        <ele>612.20001220703</ele>
        <time>2020-08-06T10:06:05.000Z</time>
      </trkpt>
      <trkpt lat="46.15283" lon="4.49001">
        <ele>612.40002441406</ele>
        <time>2020-08-06T10:06:09.000Z</time>
      </trkpt>
      <trkpt lat="46.15286" lon="4.49005">
        <ele>612.59997558594</ele>
        <time>2020-08-06T10:06:10.000Z</time>
      </trkpt>
      <trkpt lat="46.15299" lon="4.4902">
        <ele>612.79998779297</ele>
        <time>2020-08-06T10:06:14.000Z</time>
      </trkpt>
      <trkpt lat="46.15305" lon="4.49028">
        <ele>613</ele>
        <time>2020-08-06T10:06:16.000Z</time>
      </trkpt>
      <trkpt lat="46.15312" lon="4.49036">
        <ele>613.20001220703</ele>
        <time>2020-08-06T10:06:18.000Z</time>
      </trkpt>
      <trkpt lat="46.15318" lon="4.49044">
        <ele>614.20001220703</ele>
        <time>2020-08-06T10:06:20.000Z</time>
      </trkpt>
      <trkpt lat="46.1534" lon="4.49072">
        <ele>617.59997558594</ele>
        <time>2020-08-06T10:06:27.000Z</time>
      </trkpt>
      <trkpt lat="46.15353" lon="4.49086">
        <ele>619.40002441406</ele>
        <time>2020-08-06T10:06:31.000Z</time>
      </trkpt>
      <trkpt lat="46.15363" lon="4.49096">
        <ele>620.79998779297</ele>
        <time>2020-08-06T10:06:34.000Z</time>
      </trkpt>
      <trkpt lat="46.15374" lon="4.49102">
        <ele>621.79998779297</ele>
        <time>2020-08-06T10:06:37.000Z</time>
      </trkpt>
      <trkpt lat="46.15386" lon="4.49106">
        <ele>622.59997558594</ele>
        <time>2020-08-06T10:06:40.000Z</time>
      </trkpt>
      <trkpt lat="46.15394" lon="4.49106">
        <ele>622.79998779297</ele>
        <time>2020-08-06T10:06:42.000Z</time>
      </trkpt>
      <trkpt lat="46.15404" lon="4.49105">
        <ele>623.79998779297</ele>
        <time>2020-08-06T10:06:45.000Z</time>
      </trkpt>
      <trkpt lat="46.15415" lon="4.49103">
        <ele>624.59997558594</ele>
        <time>2020-08-06T10:06:48.000Z</time>
      </trkpt>
      <trkpt lat="46.15425" lon="4.49098">
        <ele>625.20001220703</ele>
        <time>2020-08-06T10:06:51.000Z</time>
      </trkpt>
      <trkpt lat="46.15438" lon="4.49091">
        <ele>625.59997558594</ele>
        <time>2020-08-06T10:06:55.000Z</time>
      </trkpt>
      <trkpt lat="46.15452" lon="4.49085">
        <ele>626.20001220703</ele>
        <time>2020-08-06T10:06:59.000Z</time>
      </trkpt>
      <trkpt lat="46.15469" lon="4.4908">
        <ele>627</ele>
        <time>2020-08-06T10:07:04.000Z</time>
      </trkpt>
      <trkpt lat="46.15476" lon="4.49078">
        <ele>627.40002441406</ele>
        <time>2020-08-06T10:07:06.000Z</time>
      </trkpt>
      <trkpt lat="46.15498" lon="4.49074">
        <ele>628.59997558594</ele>
        <time>2020-08-06T10:07:12.000Z</time>
      </trkpt>
      <trkpt lat="46.15505" lon="4.49073">
        <ele>629</ele>
        <time>2020-08-06T10:07:14.000Z</time>
      </trkpt>
      <trkpt lat="46.15512" lon="4.49072">
        <ele>629.40002441406</ele>
        <time>2020-08-06T10:07:16.000Z</time>
      </trkpt>
      <trkpt lat="46.15538" lon="4.49068">
        <ele>630</ele>
        <time>2020-08-06T10:07:23.000Z</time>
      </trkpt>
      <trkpt lat="46.15541" lon="4.49067">
        <ele>630.20001220703</ele>
        <time>2020-08-06T10:07:24.000Z</time>
      </trkpt>
      <trkpt lat="46.15567" lon="4.49063">
        <ele>630.40002441406</ele>
        <time>2020-08-06T10:07:31.000Z</time>
      </trkpt>
      <trkpt lat="46.15574" lon="4.49062">
        <ele>630.40002441406</ele>
        <time>2020-08-06T10:07:33.000Z</time>
      </trkpt>
      <trkpt lat="46.15588" lon="4.49058">
        <ele>630.20001220703</ele>
        <time>2020-08-06T10:07:37.000Z</time>
      </trkpt>
      <trkpt lat="46.15595" lon="4.49057">
        <ele>630.40002441406</ele>
        <time>2020-08-06T10:07:39.000Z</time>
      </trkpt>
      <trkpt lat="46.1561" lon="4.49055">
        <ele>630.79998779297</ele>
        <time>2020-08-06T10:07:43.000Z</time>
      </trkpt>
      <trkpt lat="46.15625" lon="4.49052">
        <ele>631</ele>
        <time>2020-08-06T10:07:47.000Z</time>
      </trkpt>
      <trkpt lat="46.15632" lon="4.49051">
        <ele>631.20001220703</ele>
        <time>2020-08-06T10:07:49.000Z</time>
      </trkpt>
      <trkpt lat="46.1565" lon="4.49049">
        <ele>632.20001220703</ele>
        <time>2020-08-06T10:07:54.000Z</time>
      </trkpt>
      <trkpt lat="46.15663" lon="4.49046">
        <ele>633.40002441406</ele>
        <time>2020-08-06T10:07:58.000Z</time>
      </trkpt>
      <trkpt lat="46.15673" lon="4.49041">
        <ele>633.59997558594</ele>
        <time>2020-08-06T10:08:01.000Z</time>
      </trkpt>
      <trkpt lat="46.15676" lon="4.49039">
        <ele>633.79998779297</ele>
        <time>2020-08-06T10:08:02.000Z</time>
      </trkpt>
      <trkpt lat="46.15696" lon="4.49029">
        <ele>634.79998779297</ele>
        <time>2020-08-06T10:08:08.000Z</time>
      </trkpt>
      <trkpt lat="46.15722" lon="4.49019">
        <ele>636.20001220703</ele>
        <time>2020-08-06T10:08:15.000Z</time>
      </trkpt>
      <trkpt lat="46.15751" lon="4.49015">
        <ele>636.59997558594</ele>
        <time>2020-08-06T10:08:23.000Z</time>
      </trkpt>
      <trkpt lat="46.15754" lon="4.49014">
        <ele>636.59997558594</ele>
        <time>2020-08-06T10:08:24.000Z</time>
      </trkpt>
      <trkpt lat="46.15768" lon="4.49011">
        <ele>636.59997558594</ele>
        <time>2020-08-06T10:08:28.000Z</time>
      </trkpt>
      <trkpt lat="46.15783" lon="4.49008">
        <ele>636.79998779297</ele>
        <time>2020-08-06T10:08:32.000Z</time>
      </trkpt>
      <trkpt lat="46.15786" lon="4.49007">
        <ele>636.79998779297</ele>
        <time>2020-08-06T10:08:33.000Z</time>
      </trkpt>
      <trkpt lat="46.15793" lon="4.49006">
        <ele>637</ele>
        <time>2020-08-06T10:08:35.000Z</time>
      </trkpt>
      <trkpt lat="46.15815" lon="4.48999">
        <ele>637.20001220703</ele>
        <time>2020-08-06T10:08:41.000Z</time>
      </trkpt>
      <trkpt lat="46.15832" lon="4.48994">
        <ele>636</ele>
        <time>2020-08-06T10:08:46.000Z</time>
      </trkpt>
      <trkpt lat="46.15843" lon="4.48991">
        <ele>635.40002441406</ele>
        <time>2020-08-06T10:08:49.000Z</time>
      </trkpt>
      <trkpt lat="46.15872" lon="4.48986">
        <ele>635.79998779297</ele>
        <time>2020-08-06T10:08:57.000Z</time>
      </trkpt>
      <trkpt lat="46.15896" lon="4.48992">
        <ele>637.79998779297</ele>
        <time>2020-08-06T10:09:04.000Z</time>
      </trkpt>
      <trkpt lat="46.159" lon="4.48994">
        <ele>638.20001220703</ele>
        <time>2020-08-06T10:09:05.000Z</time>
      </trkpt>
      <trkpt lat="46.1593" lon="4.49003">
        <ele>641.20001220703</ele>
        <time>2020-08-06T10:09:13.000Z</time>
      </trkpt>
      <trkpt lat="46.15955" lon="4.49001">
        <ele>642.79998779297</ele>
        <time>2020-08-06T10:09:20.000Z</time>
      </trkpt>
      <trkpt lat="46.15978" lon="4.48995">
        <ele>643.40002441406</ele>
        <time>2020-08-06T10:09:27.000Z</time>
      </trkpt>
      <trkpt lat="46.15982" lon="4.48994">
        <ele>643.59997558594</ele>
        <time>2020-08-06T10:09:28.000Z</time>
      </trkpt>
      <trkpt lat="46.16009" lon="4.48989">
        <ele>645</ele>
        <time>2020-08-06T10:09:36.000Z</time>
      </trkpt>
      <trkpt lat="46.16013" lon="4.48989">
        <ele>645.20001220703</ele>
        <time>2020-08-06T10:09:37.000Z</time>
      </trkpt>
      <trkpt lat="46.16031" lon="4.48987">
        <ele>646</ele>
        <time>2020-08-06T10:09:42.000Z</time>
      </trkpt>
      <trkpt lat="46.16056" lon="4.48986">
        <ele>647.59997558594</ele>
        <time>2020-08-06T10:09:49.000Z</time>
      </trkpt>
      <trkpt lat="46.1606" lon="4.48986">
        <ele>647.59997558594</ele>
        <time>2020-08-06T10:09:50.000Z</time>
      </trkpt>
      <trkpt lat="46.16074" lon="4.48985">
        <ele>647.40002441406</ele>
        <time>2020-08-06T10:09:54.000Z</time>
      </trkpt>
      <trkpt lat="46.16087" lon="4.48984">
        <ele>647.20001220703</ele>
        <time>2020-08-06T10:09:58.000Z</time>
      </trkpt>
      <trkpt lat="46.16105" lon="4.48985">
        <ele>647.20001220703</ele>
        <time>2020-08-06T10:10:03.000Z</time>
      </trkpt>
      <trkpt lat="46.16112" lon="4.48986">
        <ele>647.40002441406</ele>
        <time>2020-08-06T10:10:05.000Z</time>
      </trkpt>
      <trkpt lat="46.1614" lon="4.48992">
        <ele>648</ele>
        <time>2020-08-06T10:10:13.000Z</time>
      </trkpt>
      <trkpt lat="46.16147" lon="4.48994">
        <ele>648.20001220703</ele>
        <time>2020-08-06T10:10:15.000Z</time>
      </trkpt>
      <trkpt lat="46.16154" lon="4.48996">
        <ele>648.40002441406</ele>
        <time>2020-08-06T10:10:17.000Z</time>
      </trkpt>
      <trkpt lat="46.16178" lon="4.49005">
        <ele>649.20001220703</ele>
        <time>2020-08-06T10:10:24.000Z</time>
      </trkpt>
      <trkpt lat="46.16192" lon="4.4901">
        <ele>649.59997558594</ele>
        <time>2020-08-06T10:10:28.000Z</time>
      </trkpt>
      <trkpt lat="46.16202" lon="4.49015">
        <ele>650.20001220703</ele>
        <time>2020-08-06T10:10:31.000Z</time>
      </trkpt>
      <trkpt lat="46.16234" lon="4.49027">
        <ele>652.20001220703</ele>
        <time>2020-08-06T10:10:40.000Z</time>
      </trkpt>
      <trkpt lat="46.16259" lon="4.49037">
        <ele>654</ele>
        <time>2020-08-06T10:10:47.000Z</time>
      </trkpt>
      <trkpt lat="46.16284" lon="4.49041">
        <ele>655.79998779297</ele>
        <time>2020-08-06T10:10:54.000Z</time>
      </trkpt>
      <trkpt lat="46.16309" lon="4.49042">
        <ele>657.20001220703</ele>
        <time>2020-08-06T10:11:01.000Z</time>
      </trkpt>
      <trkpt lat="46.16338" lon="4.49043">
        <ele>659.20001220703</ele>
        <time>2020-08-06T10:11:09.000Z</time>
      </trkpt>
      <trkpt lat="46.16342" lon="4.49043">
        <ele>659.59997558594</ele>
        <time>2020-08-06T10:11:10.000Z</time>
      </trkpt>
      <trkpt lat="46.1636" lon="4.49043">
        <ele>660.79998779297</ele>
        <time>2020-08-06T10:11:15.000Z</time>
      </trkpt>
      <trkpt lat="46.16367" lon="4.49042">
        <ele>661.40002441406</ele>
        <time>2020-08-06T10:11:17.000Z</time>
      </trkpt>
      <trkpt lat="46.16378" lon="4.49043">
        <ele>662.20001220703</ele>
        <time>2020-08-06T10:11:20.000Z</time>
      </trkpt>
      <trkpt lat="46.16389" lon="4.49043">
        <ele>663</ele>
        <time>2020-08-06T10:11:23.000Z</time>
      </trkpt>
      <trkpt lat="46.16396" lon="4.49043">
        <ele>663.40002441406</ele>
        <time>2020-08-06T10:11:25.000Z</time>
      </trkpt>
      <trkpt lat="46.1641" lon="4.49042">
        <ele>663</ele>
        <time>2020-08-06T10:11:29.000Z</time>
      </trkpt>
      <trkpt lat="46.16421" lon="4.4904">
        <ele>662.79998779297</ele>
        <time>2020-08-06T10:11:32.000Z</time>
      </trkpt>
      <trkpt lat="46.16435" lon="4.49038">
        <ele>662.20001220703</ele>
        <time>2020-08-06T10:11:36.000Z</time>
      </trkpt>
      <trkpt lat="46.16451" lon="4.49038">
        <ele>662</ele>
        <time>2020-08-06T10:11:40.000Z</time>
      </trkpt>
      <trkpt lat="46.16481" lon="4.49044">
        <ele>661.40002441406</ele>
        <time>2020-08-06T10:11:47.000Z</time>
      </trkpt>
      <trkpt lat="46.1649" lon="4.49046">
        <ele>661.40002441406</ele>
        <time>2020-08-06T10:11:49.000Z</time>
      </trkpt>
      <trkpt lat="46.16513" lon="4.49052">
        <ele>661</ele>
        <time>2020-08-06T10:11:54.000Z</time>
      </trkpt>
      <trkpt lat="46.16522" lon="4.49054">
        <ele>660.79998779297</ele>
        <time>2020-08-06T10:11:56.000Z</time>
      </trkpt>
      <trkpt lat="46.16556" lon="4.49063">
        <ele>660.40002441406</ele>
        <time>2020-08-06T10:12:03.000Z</time>
      </trkpt>
      <trkpt lat="46.16561" lon="4.49064">
        <ele>660.20001220703</ele>
        <time>2020-08-06T10:12:04.000Z</time>
      </trkpt>
      <trkpt lat="46.16598" lon="4.49074">
        <ele>659.20001220703</ele>
        <time>2020-08-06T10:12:11.000Z</time>
      </trkpt>
      <trkpt lat="46.16619" lon="4.49079">
        <ele>658.59997558594</ele>
        <time>2020-08-06T10:12:15.000Z</time>
      </trkpt>
      <trkpt lat="46.16635" lon="4.49084">
        <ele>658.40002441406</ele>
        <time>2020-08-06T10:12:18.000Z</time>
      </trkpt>
      <trkpt lat="46.16667" lon="4.49092">
        <ele>658.79998779297</ele>
        <time>2020-08-06T10:12:24.000Z</time>
      </trkpt>
      <trkpt lat="46.16705" lon="4.49104">
        <ele>660</ele>
        <time>2020-08-06T10:12:31.000Z</time>
      </trkpt>
      <trkpt lat="46.1672" lon="4.49108">
        <ele>660.40002441406</ele>
        <time>2020-08-06T10:12:34.000Z</time>
      </trkpt>
      <trkpt lat="46.16725" lon="4.49109">
        <ele>660.40002441406</ele>
        <time>2020-08-06T10:12:35.000Z</time>
      </trkpt>
      <trkpt lat="46.16736" lon="4.49111">
        <ele>660.59997558594</ele>
        <time>2020-08-06T10:12:37.000Z</time>
      </trkpt>
      <trkpt lat="46.1677" lon="4.49113">
        <ele>661.20001220703</ele>
        <time>2020-08-06T10:12:44.000Z</time>
      </trkpt>
      <trkpt lat="46.16774" lon="4.49112">
        <ele>661.20001220703</ele>
        <time>2020-08-06T10:12:45.000Z</time>
      </trkpt>
      <trkpt lat="46.16809" lon="4.4911">
        <ele>661.59997558594</ele>
        <time>2020-08-06T10:12:53.000Z</time>
      </trkpt>
      <trkpt lat="46.16831" lon="4.49113">
        <ele>661.79998779297</ele>
        <time>2020-08-06T10:12:58.000Z</time>
      </trkpt>
      <trkpt lat="46.16839" lon="4.49117">
        <ele>662</ele>
        <time>2020-08-06T10:13:00.000Z</time>
      </trkpt>
      <trkpt lat="46.16856" lon="4.49129">
        <ele>661.59997558594</ele>
        <time>2020-08-06T10:13:04.000Z</time>
      </trkpt>
      <trkpt lat="46.16864" lon="4.49132">
        <ele>661.40002441406</ele>
        <time>2020-08-06T10:13:06.000Z</time>
      </trkpt>
      <trkpt lat="46.16871" lon="4.49134">
        <ele>661.40002441406</ele>
        <time>2020-08-06T10:15:26.000Z</time>
      </trkpt>
    </trkseg>
  </trk>
</gpx>